<?xml version="1.0" encoding="UTF-8" standalone="no" ?>
<gpx xmlns="http://www.topografix.com/GPX/1/1" xmlns:xsi="http://www.w3.org/2001/XMLSchema-instance" xsi:schemaLocation="http://www.topografix.com/GPX/1/1 http://www.topografix.com/GPX/1/1/gpx.xsd" version="1.1" creator="VisuGPX - https://www.visugpx.com">
  <metadata>
    <name>Vtt Ambre et Carla</name>
    <desc><![CDATA[après 5 km, plus de difficultés]]></desc>
  </metadata>
  <trk>
    <name><![CDATA[St Hubert 1 on GPSies.com]]></name>
    <trkseg>
      <trkpt lat="47.66759" lon="5.974">
        <ele>215</ele>
        <time>2010-01-01T00:00:00Z</time>
      </trkpt>
      <trkpt lat="47.6677" lon="5.97412">
        <ele>216</ele>
        <time>2010-01-01T00:00:05Z</time>
      </trkpt>
      <trkpt lat="47.66792" lon="5.97432">
        <ele>216</ele>
        <time>2010-01-01T00:00:15Z</time>
      </trkpt>
      <trkpt lat="47.66805" lon="5.97405">
        <ele>215</ele>
        <time>2010-01-01T00:00:24Z</time>
      </trkpt>
      <trkpt lat="47.66812" lon="5.97386">
        <ele>214</ele>
        <time>2010-01-01T00:00:30Z</time>
      </trkpt>
      <trkpt lat="47.6682" lon="5.9737">
        <ele>214</ele>
        <time>2010-01-01T00:00:35Z</time>
      </trkpt>
      <trkpt lat="47.66825" lon="5.97356">
        <ele>214</ele>
        <time>2010-01-01T00:00:40Z</time>
      </trkpt>
      <trkpt lat="47.66829" lon="5.97344">
        <ele>214</ele>
        <time>2010-01-01T00:00:43Z</time>
      </trkpt>
      <trkpt lat="47.6683" lon="5.97335">
        <ele>214</ele>
        <time>2010-01-01T00:00:46Z</time>
      </trkpt>
      <trkpt lat="47.66832" lon="5.97327">
        <ele>214</ele>
        <time>2010-01-01T00:00:48Z</time>
      </trkpt>
      <trkpt lat="47.66832" lon="5.97319">
        <ele>214</ele>
        <time>2010-01-01T00:00:50Z</time>
      </trkpt>
      <trkpt lat="47.66832" lon="5.97311">
        <ele>214</ele>
        <time>2010-01-01T00:00:52Z</time>
      </trkpt>
      <trkpt lat="47.66829" lon="5.97299">
        <ele>213</ele>
        <time>2010-01-01T00:00:56Z</time>
      </trkpt>
      <trkpt lat="47.66828" lon="5.97291">
        <ele>213</ele>
        <time>2010-01-01T00:00:58Z</time>
      </trkpt>
      <trkpt lat="47.66822" lon="5.97266">
        <ele>213</ele>
        <time>2010-01-01T00:01:05Z</time>
      </trkpt>
      <trkpt lat="47.66818" lon="5.97246">
        <ele>213</ele>
        <time>2010-01-01T00:01:10Z</time>
      </trkpt>
      <trkpt lat="47.66814" lon="5.97237">
        <ele>212</ele>
        <time>2010-01-01T00:01:13Z</time>
      </trkpt>
      <trkpt lat="47.66806" lon="5.97215">
        <ele>211</ele>
        <time>2010-01-01T00:01:20Z</time>
      </trkpt>
      <trkpt lat="47.668" lon="5.97203">
        <ele>211</ele>
        <time>2010-01-01T00:01:24Z</time>
      </trkpt>
      <trkpt lat="47.66797" lon="5.97196">
        <ele>211</ele>
        <time>2010-01-01T00:01:26Z</time>
      </trkpt>
      <trkpt lat="47.66795" lon="5.97191">
        <ele>211</ele>
        <time>2010-01-01T00:01:28Z</time>
      </trkpt>
      <trkpt lat="47.66795" lon="5.97182">
        <ele>211</ele>
        <time>2010-01-01T00:01:30Z</time>
      </trkpt>
      <trkpt lat="47.66795" lon="5.97172">
        <ele>211</ele>
        <time>2010-01-01T00:01:33Z</time>
      </trkpt>
      <trkpt lat="47.66793" lon="5.97151">
        <ele>211</ele>
        <time>2010-01-01T00:01:39Z</time>
      </trkpt>
      <trkpt lat="47.66792" lon="5.97141">
        <ele>211</ele>
        <time>2010-01-01T00:01:41Z</time>
      </trkpt>
      <trkpt lat="47.6679" lon="5.97132">
        <ele>210</ele>
        <time>2010-01-01T00:01:44Z</time>
      </trkpt>
      <trkpt lat="47.66797" lon="5.97128">
        <ele>210</ele>
        <time>2010-01-01T00:01:47Z</time>
      </trkpt>
      <trkpt lat="47.66806" lon="5.97128">
        <ele>209</ele>
        <time>2010-01-01T00:01:51Z</time>
      </trkpt>
      <trkpt lat="47.66814" lon="5.97129">
        <ele>209</ele>
        <time>2010-01-01T00:01:54Z</time>
      </trkpt>
      <trkpt lat="47.66826" lon="5.97129">
        <ele>209</ele>
        <time>2010-01-01T00:01:59Z</time>
      </trkpt>
      <trkpt lat="47.66837" lon="5.97132">
        <ele>210</ele>
        <time>2010-01-01T00:02:03Z</time>
      </trkpt>
      <trkpt lat="47.66867" lon="5.97137">
        <ele>212</ele>
        <time>2010-01-01T00:02:15Z</time>
      </trkpt>
      <trkpt lat="47.66882" lon="5.97139">
        <ele>214</ele>
        <time>2010-01-01T00:02:21Z</time>
      </trkpt>
      <trkpt lat="47.66896" lon="5.97141">
        <ele>215</ele>
        <time>2010-01-01T00:02:27Z</time>
      </trkpt>
      <trkpt lat="47.66913" lon="5.97143">
        <ele>217</ele>
        <time>2010-01-01T00:02:34Z</time>
      </trkpt>
      <trkpt lat="47.6693" lon="5.97146">
        <ele>218</ele>
        <time>2010-01-01T00:02:41Z</time>
      </trkpt>
      <trkpt lat="47.66951" lon="5.9715">
        <ele>220</ele>
        <time>2010-01-01T00:02:49Z</time>
      </trkpt>
      <trkpt lat="47.6697" lon="5.97154">
        <ele>221</ele>
        <time>2010-01-01T00:02:57Z</time>
      </trkpt>
      <trkpt lat="47.66978" lon="5.97156">
        <ele>222</ele>
        <time>2010-01-01T00:03:00Z</time>
      </trkpt>
      <trkpt lat="47.66992" lon="5.97158">
        <ele>222</ele>
        <time>2010-01-01T00:03:06Z</time>
      </trkpt>
      <trkpt lat="47.67012" lon="5.97163">
        <ele>222</ele>
        <time>2010-01-01T00:03:14Z</time>
      </trkpt>
      <trkpt lat="47.6703" lon="5.97167">
        <ele>224</ele>
        <time>2010-01-01T00:03:21Z</time>
      </trkpt>
      <trkpt lat="47.67045" lon="5.97172">
        <ele>224</ele>
        <time>2010-01-01T00:03:27Z</time>
      </trkpt>
      <trkpt lat="47.67086" lon="5.97191">
        <ele>227</ele>
        <time>2010-01-01T00:03:44Z</time>
      </trkpt>
      <trkpt lat="47.67097" lon="5.97194">
        <ele>227</ele>
        <time>2010-01-01T00:03:49Z</time>
      </trkpt>
      <trkpt lat="47.67105" lon="5.97196">
        <ele>226</ele>
        <time>2010-01-01T00:03:52Z</time>
      </trkpt>
      <trkpt lat="47.67115" lon="5.97196">
        <ele>227</ele>
        <time>2010-01-01T00:03:56Z</time>
      </trkpt>
      <trkpt lat="47.67124" lon="5.97195">
        <ele>227</ele>
        <time>2010-01-01T00:04:00Z</time>
      </trkpt>
      <trkpt lat="47.67133" lon="5.97194">
        <ele>228</ele>
        <time>2010-01-01T00:04:03Z</time>
      </trkpt>
      <trkpt lat="47.67138" lon="5.97196">
        <ele>228</ele>
        <time>2010-01-01T00:04:06Z</time>
      </trkpt>
      <trkpt lat="47.67145" lon="5.97199">
        <ele>229</ele>
        <time>2010-01-01T00:04:08Z</time>
      </trkpt>
      <trkpt lat="47.67152" lon="5.97203">
        <ele>229</ele>
        <time>2010-01-01T00:04:12Z</time>
      </trkpt>
      <trkpt lat="47.67159" lon="5.97208">
        <ele>230</ele>
        <time>2010-01-01T00:04:14Z</time>
      </trkpt>
      <trkpt lat="47.67167" lon="5.97209">
        <ele>231</ele>
        <time>2010-01-01T00:04:18Z</time>
      </trkpt>
      <trkpt lat="47.67178" lon="5.97209">
        <ele>231</ele>
        <time>2010-01-01T00:04:22Z</time>
      </trkpt>
      <trkpt lat="47.67191" lon="5.97208">
        <ele>231</ele>
        <time>2010-01-01T00:04:27Z</time>
      </trkpt>
      <trkpt lat="47.67203" lon="5.97202">
        <ele>233</ele>
        <time>2010-01-01T00:04:32Z</time>
      </trkpt>
      <trkpt lat="47.67213" lon="5.97194">
        <ele>234</ele>
        <time>2010-01-01T00:04:37Z</time>
      </trkpt>
      <trkpt lat="47.67221" lon="5.97185">
        <ele>235</ele>
        <time>2010-01-01T00:04:41Z</time>
      </trkpt>
      <trkpt lat="47.67231" lon="5.97176">
        <ele>236</ele>
        <time>2010-01-01T00:04:46Z</time>
      </trkpt>
      <trkpt lat="47.67237" lon="5.97167">
        <ele>237</ele>
        <time>2010-01-01T00:04:49Z</time>
      </trkpt>
      <trkpt lat="47.6724" lon="5.97164">
        <ele>237</ele>
        <time>2010-01-01T00:04:51Z</time>
      </trkpt>
      <trkpt lat="47.67233" lon="5.97111">
        <ele>239</ele>
        <time>2010-01-01T00:05:05Z</time>
      </trkpt>
      <trkpt lat="47.67228" lon="5.9708">
        <ele>239</ele>
        <time>2010-01-01T00:05:14Z</time>
      </trkpt>
      <trkpt lat="47.6723" lon="5.97064">
        <ele>239</ele>
        <time>2010-01-01T00:05:18Z</time>
      </trkpt>
      <trkpt lat="47.67236" lon="5.9707">
        <ele>239</ele>
        <time>2010-01-01T00:05:21Z</time>
      </trkpt>
      <trkpt lat="47.67246" lon="5.97077">
        <ele>239</ele>
        <time>2010-01-01T00:05:25Z</time>
      </trkpt>
      <trkpt lat="47.67262" lon="5.97089">
        <ele>240</ele>
        <time>2010-01-01T00:05:33Z</time>
      </trkpt>
      <trkpt lat="47.67271" lon="5.97093">
        <ele>240</ele>
        <time>2010-01-01T00:05:37Z</time>
      </trkpt>
      <trkpt lat="47.67279" lon="5.97096">
        <ele>241</ele>
        <time>2010-01-01T00:05:40Z</time>
      </trkpt>
      <trkpt lat="47.67291" lon="5.97099">
        <ele>241</ele>
        <time>2010-01-01T00:05:45Z</time>
      </trkpt>
      <trkpt lat="47.67307" lon="5.97103">
        <ele>241</ele>
        <time>2010-01-01T00:05:51Z</time>
      </trkpt>
      <trkpt lat="47.67324" lon="5.97107">
        <ele>242</ele>
        <time>2010-01-01T00:05:58Z</time>
      </trkpt>
      <trkpt lat="47.67342" lon="5.9711">
        <ele>242</ele>
        <time>2010-01-01T00:06:05Z</time>
      </trkpt>
      <trkpt lat="47.67357" lon="5.97114">
        <ele>243</ele>
        <time>2010-01-01T00:06:11Z</time>
      </trkpt>
      <trkpt lat="47.67373" lon="5.97118">
        <ele>243</ele>
        <time>2010-01-01T00:06:18Z</time>
      </trkpt>
      <trkpt lat="47.67428" lon="5.97131">
        <ele>245</ele>
        <time>2010-01-01T00:06:40Z</time>
      </trkpt>
      <trkpt lat="47.67444" lon="5.97136">
        <ele>245</ele>
        <time>2010-01-01T00:06:47Z</time>
      </trkpt>
      <trkpt lat="47.67475" lon="5.97142">
        <ele>246</ele>
        <time>2010-01-01T00:06:59Z</time>
      </trkpt>
      <trkpt lat="47.67484" lon="5.97143">
        <ele>246</ele>
        <time>2010-01-01T00:07:03Z</time>
      </trkpt>
      <trkpt lat="47.67488" lon="5.97144">
        <ele>246</ele>
        <time>2010-01-01T00:07:05Z</time>
      </trkpt>
      <trkpt lat="47.67499" lon="5.97144">
        <ele>246</ele>
        <time>2010-01-01T00:07:09Z</time>
      </trkpt>
      <trkpt lat="47.6752" lon="5.97142">
        <ele>248</ele>
        <time>2010-01-01T00:07:17Z</time>
      </trkpt>
      <trkpt lat="47.67533" lon="5.97142">
        <ele>249</ele>
        <time>2010-01-01T00:07:23Z</time>
      </trkpt>
      <trkpt lat="47.67543" lon="5.97144">
        <ele>249</ele>
        <time>2010-01-01T00:07:27Z</time>
      </trkpt>
      <trkpt lat="47.67574" lon="5.9715">
        <ele>250</ele>
        <time>2010-01-01T00:07:39Z</time>
      </trkpt>
      <trkpt lat="47.6759" lon="5.97152">
        <ele>250</ele>
        <time>2010-01-01T00:07:46Z</time>
      </trkpt>
      <trkpt lat="47.67595" lon="5.97153">
        <ele>250</ele>
        <time>2010-01-01T00:07:48Z</time>
      </trkpt>
      <trkpt lat="47.67637" lon="5.97157">
        <ele>250</ele>
        <time>2010-01-01T00:08:04Z</time>
      </trkpt>
      <trkpt lat="47.67651" lon="5.97158">
        <ele>250</ele>
        <time>2010-01-01T00:08:10Z</time>
      </trkpt>
      <trkpt lat="47.67662" lon="5.97157">
        <ele>251</ele>
        <time>2010-01-01T00:08:14Z</time>
      </trkpt>
      <trkpt lat="47.67668" lon="5.97154">
        <ele>251</ele>
        <time>2010-01-01T00:08:17Z</time>
      </trkpt>
      <trkpt lat="47.67673" lon="5.97157">
        <ele>251</ele>
        <time>2010-01-01T00:08:19Z</time>
      </trkpt>
      <trkpt lat="47.67684" lon="5.97164">
        <ele>251</ele>
        <time>2010-01-01T00:08:24Z</time>
      </trkpt>
      <trkpt lat="47.67698" lon="5.97171">
        <ele>251</ele>
        <time>2010-01-01T00:08:30Z</time>
      </trkpt>
      <trkpt lat="47.67718" lon="5.97182">
        <ele>252</ele>
        <time>2010-01-01T00:08:38Z</time>
      </trkpt>
      <trkpt lat="47.67735" lon="5.97193">
        <ele>253</ele>
        <time>2010-01-01T00:08:46Z</time>
      </trkpt>
      <trkpt lat="47.67753" lon="5.97203">
        <ele>254</ele>
        <time>2010-01-01T00:08:54Z</time>
      </trkpt>
      <trkpt lat="47.67768" lon="5.97215">
        <ele>254</ele>
        <time>2010-01-01T00:09:00Z</time>
      </trkpt>
      <trkpt lat="47.67792" lon="5.97232">
        <ele>256</ele>
        <time>2010-01-01T00:09:11Z</time>
      </trkpt>
      <trkpt lat="47.67812" lon="5.9725">
        <ele>257</ele>
        <time>2010-01-01T00:09:20Z</time>
      </trkpt>
      <trkpt lat="47.67835" lon="5.97268">
        <ele>258</ele>
        <time>2010-01-01T00:09:31Z</time>
      </trkpt>
      <trkpt lat="47.67874" lon="5.97298">
        <ele>259</ele>
        <time>2010-01-01T00:09:48Z</time>
      </trkpt>
      <trkpt lat="47.67899" lon="5.97317">
        <ele>260</ele>
        <time>2010-01-01T00:10:00Z</time>
      </trkpt>
      <trkpt lat="47.67927" lon="5.9734">
        <ele>261</ele>
        <time>2010-01-01T00:10:12Z</time>
      </trkpt>
      <trkpt lat="47.67949" lon="5.97357">
        <ele>261</ele>
        <time>2010-01-01T00:10:22Z</time>
      </trkpt>
      <trkpt lat="47.6797" lon="5.97375">
        <ele>262</ele>
        <time>2010-01-01T00:10:32Z</time>
      </trkpt>
      <trkpt lat="47.67976" lon="5.97382">
        <ele>263</ele>
        <time>2010-01-01T00:10:35Z</time>
      </trkpt>
      <trkpt lat="47.67983" lon="5.97389">
        <ele>264</ele>
        <time>2010-01-01T00:10:38Z</time>
      </trkpt>
      <trkpt lat="47.6799" lon="5.97398">
        <ele>265</ele>
        <time>2010-01-01T00:10:42Z</time>
      </trkpt>
      <trkpt lat="47.67996" lon="5.97404">
        <ele>266</ele>
        <time>2010-01-01T00:10:45Z</time>
      </trkpt>
      <trkpt lat="47.68007" lon="5.97418">
        <ele>267</ele>
        <time>2010-01-01T00:10:51Z</time>
      </trkpt>
      <trkpt lat="47.68021" lon="5.97434">
        <ele>268</ele>
        <time>2010-01-01T00:10:58Z</time>
      </trkpt>
      <trkpt lat="47.68043" lon="5.97457">
        <ele>268</ele>
        <time>2010-01-01T00:11:08Z</time>
      </trkpt>
      <trkpt lat="47.68061" lon="5.97475">
        <ele>270</ele>
        <time>2010-01-01T00:11:17Z</time>
      </trkpt>
      <trkpt lat="47.68078" lon="5.97494">
        <ele>271</ele>
        <time>2010-01-01T00:11:26Z</time>
      </trkpt>
      <trkpt lat="47.68092" lon="5.9751">
        <ele>272</ele>
        <time>2010-01-01T00:11:33Z</time>
      </trkpt>
      <trkpt lat="47.68101" lon="5.9752">
        <ele>272</ele>
        <time>2010-01-01T00:11:37Z</time>
      </trkpt>
      <trkpt lat="47.6811" lon="5.9753">
        <ele>272</ele>
        <time>2010-01-01T00:11:42Z</time>
      </trkpt>
      <trkpt lat="47.68142" lon="5.97555">
        <ele>273</ele>
        <time>2010-01-01T00:11:56Z</time>
      </trkpt>
      <trkpt lat="47.68162" lon="5.97574">
        <ele>274</ele>
        <time>2010-01-01T00:12:06Z</time>
      </trkpt>
      <trkpt lat="47.68178" lon="5.97588">
        <ele>275</ele>
        <time>2010-01-01T00:12:13Z</time>
      </trkpt>
      <trkpt lat="47.68187" lon="5.97593">
        <ele>276</ele>
        <time>2010-01-01T00:12:17Z</time>
      </trkpt>
      <trkpt lat="47.68194" lon="5.97594">
        <ele>276</ele>
        <time>2010-01-01T00:12:20Z</time>
      </trkpt>
      <trkpt lat="47.68199" lon="5.97594">
        <ele>277</ele>
        <time>2010-01-01T00:12:22Z</time>
      </trkpt>
      <trkpt lat="47.68208" lon="5.97592">
        <ele>277</ele>
        <time>2010-01-01T00:12:26Z</time>
      </trkpt>
      <trkpt lat="47.68222" lon="5.97584">
        <ele>278</ele>
        <time>2010-01-01T00:12:31Z</time>
      </trkpt>
      <trkpt lat="47.68226" lon="5.97582">
        <ele>278</ele>
        <time>2010-01-01T00:12:33Z</time>
      </trkpt>
      <trkpt lat="47.68237" lon="5.97576">
        <ele>278</ele>
        <time>2010-01-01T00:12:38Z</time>
      </trkpt>
      <trkpt lat="47.68249" lon="5.9757">
        <ele>278</ele>
        <time>2010-01-01T00:12:43Z</time>
      </trkpt>
      <trkpt lat="47.68257" lon="5.97569">
        <ele>277</ele>
        <time>2010-01-01T00:12:46Z</time>
      </trkpt>
      <trkpt lat="47.68266" lon="5.97569">
        <ele>277</ele>
        <time>2010-01-01T00:12:50Z</time>
      </trkpt>
      <trkpt lat="47.68272" lon="5.97568">
        <ele>276</ele>
        <time>2010-01-01T00:12:52Z</time>
      </trkpt>
      <trkpt lat="47.6828" lon="5.9757">
        <ele>276</ele>
        <time>2010-01-01T00:12:55Z</time>
      </trkpt>
      <trkpt lat="47.68291" lon="5.97573">
        <ele>276</ele>
        <time>2010-01-01T00:13:00Z</time>
      </trkpt>
      <trkpt lat="47.68311" lon="5.97579">
        <ele>276</ele>
        <time>2010-01-01T00:13:08Z</time>
      </trkpt>
      <trkpt lat="47.68336" lon="5.97587">
        <ele>276</ele>
        <time>2010-01-01T00:13:18Z</time>
      </trkpt>
      <trkpt lat="47.68357" lon="5.97593">
        <ele>276</ele>
        <time>2010-01-01T00:13:27Z</time>
      </trkpt>
      <trkpt lat="47.68382" lon="5.97602">
        <ele>276</ele>
        <time>2010-01-01T00:13:37Z</time>
      </trkpt>
      <trkpt lat="47.68396" lon="5.97605">
        <ele>276</ele>
        <time>2010-01-01T00:13:43Z</time>
      </trkpt>
      <trkpt lat="47.68414" lon="5.9761">
        <ele>277</ele>
        <time>2010-01-01T00:13:50Z</time>
      </trkpt>
      <trkpt lat="47.6844" lon="5.97617">
        <ele>278</ele>
        <time>2010-01-01T00:14:01Z</time>
      </trkpt>
      <trkpt lat="47.685" lon="5.97632">
        <ele>280</ele>
        <time>2010-01-01T00:14:25Z</time>
      </trkpt>
      <trkpt lat="47.68534" lon="5.9764">
        <ele>282</ele>
        <time>2010-01-01T00:14:39Z</time>
      </trkpt>
      <trkpt lat="47.68557" lon="5.97644">
        <ele>283</ele>
        <time>2010-01-01T00:14:48Z</time>
      </trkpt>
      <trkpt lat="47.68574" lon="5.97649">
        <ele>282</ele>
        <time>2010-01-01T00:14:55Z</time>
      </trkpt>
      <trkpt lat="47.68585" lon="5.97651">
        <ele>282</ele>
        <time>2010-01-01T00:14:59Z</time>
      </trkpt>
      <trkpt lat="47.68585" lon="5.97663">
        <ele>282</ele>
        <time>2010-01-01T00:15:03Z</time>
      </trkpt>
      <trkpt lat="47.68584" lon="5.97674">
        <ele>282</ele>
        <time>2010-01-01T00:15:06Z</time>
      </trkpt>
      <trkpt lat="47.68584" lon="5.97693">
        <ele>282</ele>
        <time>2010-01-01T00:15:11Z</time>
      </trkpt>
      <trkpt lat="47.68585" lon="5.97725">
        <ele>283</ele>
        <time>2010-01-01T00:15:19Z</time>
      </trkpt>
      <trkpt lat="47.68585" lon="5.97788">
        <ele>284</ele>
        <time>2010-01-01T00:15:36Z</time>
      </trkpt>
      <trkpt lat="47.68585" lon="5.97815">
        <ele>284</ele>
        <time>2010-01-01T00:15:44Z</time>
      </trkpt>
      <trkpt lat="47.68586" lon="5.97846">
        <ele>285</ele>
        <time>2010-01-01T00:15:52Z</time>
      </trkpt>
      <trkpt lat="47.68586" lon="5.97878">
        <ele>286</ele>
        <time>2010-01-01T00:16:01Z</time>
      </trkpt>
      <trkpt lat="47.68586" lon="5.97902">
        <ele>286</ele>
        <time>2010-01-01T00:16:07Z</time>
      </trkpt>
      <trkpt lat="47.68586" lon="5.97916">
        <ele>286</ele>
        <time>2010-01-01T00:16:11Z</time>
      </trkpt>
      <trkpt lat="47.68589" lon="5.97924">
        <ele>287</ele>
        <time>2010-01-01T00:16:13Z</time>
      </trkpt>
      <trkpt lat="47.68592" lon="5.97932">
        <ele>287</ele>
        <time>2010-01-01T00:16:16Z</time>
      </trkpt>
      <trkpt lat="47.68596" lon="5.97939">
        <ele>287</ele>
        <time>2010-01-01T00:16:18Z</time>
      </trkpt>
      <trkpt lat="47.68605" lon="5.9795">
        <ele>287</ele>
        <time>2010-01-01T00:16:23Z</time>
      </trkpt>
      <trkpt lat="47.68617" lon="5.97966">
        <ele>288</ele>
        <time>2010-01-01T00:16:29Z</time>
      </trkpt>
      <trkpt lat="47.68628" lon="5.97981">
        <ele>288</ele>
        <time>2010-01-01T00:16:35Z</time>
      </trkpt>
      <trkpt lat="47.68637" lon="5.97994">
        <ele>288</ele>
        <time>2010-01-01T00:16:40Z</time>
      </trkpt>
      <trkpt lat="47.68647" lon="5.98007">
        <ele>288</ele>
        <time>2010-01-01T00:16:46Z</time>
      </trkpt>
      <trkpt lat="47.68662" lon="5.98026">
        <ele>288</ele>
        <time>2010-01-01T00:16:54Z</time>
      </trkpt>
      <trkpt lat="47.68676" lon="5.98046">
        <ele>288</ele>
        <time>2010-01-01T00:17:01Z</time>
      </trkpt>
      <trkpt lat="47.68694" lon="5.98069">
        <ele>288</ele>
        <time>2010-01-01T00:17:11Z</time>
      </trkpt>
      <trkpt lat="47.68707" lon="5.98085">
        <ele>288</ele>
        <time>2010-01-01T00:17:18Z</time>
      </trkpt>
      <trkpt lat="47.68714" lon="5.98097">
        <ele>288</ele>
        <time>2010-01-01T00:17:22Z</time>
      </trkpt>
      <trkpt lat="47.68718" lon="5.98108">
        <ele>287</ele>
        <time>2010-01-01T00:17:25Z</time>
      </trkpt>
      <trkpt lat="47.6872" lon="5.98114">
        <ele>287</ele>
        <time>2010-01-01T00:17:27Z</time>
      </trkpt>
      <trkpt lat="47.68721" lon="5.98126">
        <ele>287</ele>
        <time>2010-01-01T00:17:30Z</time>
      </trkpt>
      <trkpt lat="47.68721" lon="5.98137">
        <ele>287</ele>
        <time>2010-01-01T00:17:33Z</time>
      </trkpt>
      <trkpt lat="47.68719" lon="5.98152">
        <ele>287</ele>
        <time>2010-01-01T00:17:37Z</time>
      </trkpt>
      <trkpt lat="47.68705" lon="5.98292">
        <ele>285</ele>
        <time>2010-01-01T00:18:16Z</time>
      </trkpt>
      <trkpt lat="47.68687" lon="5.9848">
        <ele>279</ele>
        <time>2010-01-01T00:19:07Z</time>
      </trkpt>
      <trkpt lat="47.68676" lon="5.98601">
        <ele>279</ele>
        <time>2010-01-01T00:19:40Z</time>
      </trkpt>
      <trkpt lat="47.68663" lon="5.98711">
        <ele>273</ele>
        <time>2010-01-01T00:20:10Z</time>
      </trkpt>
      <trkpt lat="47.68649" lon="5.98818">
        <ele>270</ele>
        <time>2010-01-01T00:20:39Z</time>
      </trkpt>
      <trkpt lat="47.68646" lon="5.98845">
        <ele>270</ele>
        <time>2010-01-01T00:20:46Z</time>
      </trkpt>
      <trkpt lat="47.68641" lon="5.98856">
        <ele>270</ele>
        <time>2010-01-01T00:20:50Z</time>
      </trkpt>
      <trkpt lat="47.68643" lon="5.98868">
        <ele>271</ele>
        <time>2010-01-01T00:20:53Z</time>
      </trkpt>
      <trkpt lat="47.68646" lon="5.9888">
        <ele>271</ele>
        <time>2010-01-01T00:20:57Z</time>
      </trkpt>
      <trkpt lat="47.68649" lon="5.98895">
        <ele>271</ele>
        <time>2010-01-01T00:21:01Z</time>
      </trkpt>
      <trkpt lat="47.68658" lon="5.98918">
        <ele>273</ele>
        <time>2010-01-01T00:21:08Z</time>
      </trkpt>
      <trkpt lat="47.68667" lon="5.9895">
        <ele>273</ele>
        <time>2010-01-01T00:21:17Z</time>
      </trkpt>
      <trkpt lat="47.68673" lon="5.98958">
        <ele>273</ele>
        <time>2010-01-01T00:21:20Z</time>
      </trkpt>
      <trkpt lat="47.68678" lon="5.98968">
        <ele>273</ele>
        <time>2010-01-01T00:21:24Z</time>
      </trkpt>
      <trkpt lat="47.6869" lon="5.98984">
        <ele>272</ele>
        <time>2010-01-01T00:21:30Z</time>
      </trkpt>
      <trkpt lat="47.68779" lon="5.99078">
        <ele>277</ele>
        <time>2010-01-01T00:22:14Z</time>
      </trkpt>
      <trkpt lat="47.68814" lon="5.9912">
        <ele>277</ele>
        <time>2010-01-01T00:22:32Z</time>
      </trkpt>
      <trkpt lat="47.68829" lon="5.99148">
        <ele>278</ele>
        <time>2010-01-01T00:22:42Z</time>
      </trkpt>
      <trkpt lat="47.68835" lon="5.99158">
        <ele>278</ele>
        <time>2010-01-01T00:22:45Z</time>
      </trkpt>
      <trkpt lat="47.68843" lon="5.99178">
        <ele>279</ele>
        <time>2010-01-01T00:22:52Z</time>
      </trkpt>
      <trkpt lat="47.68857" lon="5.99198">
        <ele>280</ele>
        <time>2010-01-01T00:22:59Z</time>
      </trkpt>
      <trkpt lat="47.68875" lon="5.99221">
        <ele>281</ele>
        <time>2010-01-01T00:23:09Z</time>
      </trkpt>
      <trkpt lat="47.6892" lon="5.99265">
        <ele>285</ele>
        <time>2010-01-01T00:23:31Z</time>
      </trkpt>
      <trkpt lat="47.68938" lon="5.99287">
        <ele>287</ele>
        <time>2010-01-01T00:23:40Z</time>
      </trkpt>
      <trkpt lat="47.6895" lon="5.99298">
        <ele>287</ele>
        <time>2010-01-01T00:23:46Z</time>
      </trkpt>
      <trkpt lat="47.68969" lon="5.99312">
        <ele>287</ele>
        <time>2010-01-01T00:23:54Z</time>
      </trkpt>
      <trkpt lat="47.69004" lon="5.9933">
        <ele>287</ele>
        <time>2010-01-01T00:24:09Z</time>
      </trkpt>
      <trkpt lat="47.69023" lon="5.99342">
        <ele>287</ele>
        <time>2010-01-01T00:24:17Z</time>
      </trkpt>
      <trkpt lat="47.69037" lon="5.99311">
        <ele>288</ele>
        <time>2010-01-01T00:24:27Z</time>
      </trkpt>
      <trkpt lat="47.69045" lon="5.99293">
        <ele>288</ele>
        <time>2010-01-01T00:24:33Z</time>
      </trkpt>
      <trkpt lat="47.69061" lon="5.99254">
        <ele>289</ele>
        <time>2010-01-01T00:24:45Z</time>
      </trkpt>
      <trkpt lat="47.69061" lon="5.99253">
        <ele>289</ele>
        <time>2010-01-01T00:24:46Z</time>
      </trkpt>
      <trkpt lat="47.69078" lon="5.99212">
        <ele>292</ele>
        <time>2010-01-01T00:24:58Z</time>
      </trkpt>
      <trkpt lat="47.69105" lon="5.9915">
        <ele>294</ele>
        <time>2010-01-01T00:25:18Z</time>
      </trkpt>
      <trkpt lat="47.69118" lon="5.9912">
        <ele>294</ele>
        <time>2010-01-01T00:25:28Z</time>
      </trkpt>
      <trkpt lat="47.69133" lon="5.99086">
        <ele>295</ele>
        <time>2010-01-01T00:25:39Z</time>
      </trkpt>
      <trkpt lat="47.69147" lon="5.99052">
        <ele>297</ele>
        <time>2010-01-01T00:25:50Z</time>
      </trkpt>
      <trkpt lat="47.69161" lon="5.99021">
        <ele>298</ele>
        <time>2010-01-01T00:26:00Z</time>
      </trkpt>
      <trkpt lat="47.69169" lon="5.99">
        <ele>299</ele>
        <time>2010-01-01T00:26:06Z</time>
      </trkpt>
      <trkpt lat="47.69171" lon="5.98995">
        <ele>299</ele>
        <time>2010-01-01T00:26:08Z</time>
      </trkpt>
      <trkpt lat="47.69377" lon="5.99171">
        <ele>307</ele>
        <time>2010-01-01T00:27:43Z</time>
      </trkpt>
      <trkpt lat="47.69451" lon="5.99233">
        <ele>312</ele>
        <time>2010-01-01T00:28:17Z</time>
      </trkpt>
      <trkpt lat="47.6947" lon="5.99186">
        <ele>315</ele>
        <time>2010-01-01T00:28:32Z</time>
      </trkpt>
      <trkpt lat="47.69477" lon="5.99168">
        <ele>316</ele>
        <time>2010-01-01T00:28:37Z</time>
      </trkpt>
      <trkpt lat="47.69846" lon="5.99811">
        <ele>312</ele>
        <time>2010-01-01T00:32:25Z</time>
      </trkpt>
      <trkpt lat="47.69778" lon="5.99877">
        <ele>314</ele>
        <time>2010-01-01T00:32:58Z</time>
      </trkpt>
      <trkpt lat="47.70017" lon="6.00225">
        <ele>303</ele>
        <time>2010-01-01T00:35:12Z</time>
      </trkpt>
      <trkpt lat="47.69915" lon="6.00394">
        <ele>300</ele>
        <time>2010-01-01T00:36:13Z</time>
      </trkpt>
      <trkpt lat="47.69887" lon="6.00455">
        <ele>297</ele>
        <time>2010-01-01T00:36:33Z</time>
      </trkpt>
      <trkpt lat="47.69871" lon="6.00496">
        <ele>294</ele>
        <time>2010-01-01T00:36:45Z</time>
      </trkpt>
      <trkpt lat="47.69858" lon="6.00519">
        <ele>293</ele>
        <time>2010-01-01T00:36:53Z</time>
      </trkpt>
      <trkpt lat="47.69843" lon="6.00546">
        <ele>292</ele>
        <time>2010-01-01T00:37:03Z</time>
      </trkpt>
      <trkpt lat="47.69831" lon="6.00574">
        <ele>291</ele>
        <time>2010-01-01T00:37:12Z</time>
      </trkpt>
      <trkpt lat="47.69825" lon="6.00596">
        <ele>291</ele>
        <time>2010-01-01T00:37:18Z</time>
      </trkpt>
      <trkpt lat="47.69819" lon="6.0061">
        <ele>291</ele>
        <time>2010-01-01T00:37:23Z</time>
      </trkpt>
      <trkpt lat="47.69804" lon="6.00655">
        <ele>290</ele>
        <time>2010-01-01T00:37:36Z</time>
      </trkpt>
      <trkpt lat="47.69788" lon="6.00699">
        <ele>290</ele>
        <time>2010-01-01T00:37:50Z</time>
      </trkpt>
      <trkpt lat="47.69782" lon="6.00719">
        <ele>289</ele>
        <time>2010-01-01T00:37:56Z</time>
      </trkpt>
      <trkpt lat="47.69777" lon="6.00746">
        <ele>287</ele>
        <time>2010-01-01T00:38:03Z</time>
      </trkpt>
      <trkpt lat="47.69773" lon="6.00778">
        <ele>286</ele>
        <time>2010-01-01T00:38:12Z</time>
      </trkpt>
      <trkpt lat="47.69769" lon="6.00816">
        <ele>285</ele>
        <time>2010-01-01T00:38:22Z</time>
      </trkpt>
      <trkpt lat="47.69763" lon="6.00862">
        <ele>284</ele>
        <time>2010-01-01T00:38:35Z</time>
      </trkpt>
      <trkpt lat="47.69757" lon="6.00904">
        <ele>283</ele>
        <time>2010-01-01T00:38:46Z</time>
      </trkpt>
      <trkpt lat="47.69757" lon="6.00909">
        <ele>283</ele>
        <time>2010-01-01T00:38:48Z</time>
      </trkpt>
      <trkpt lat="47.69758" lon="6.00915">
        <ele>283</ele>
        <time>2010-01-01T00:38:49Z</time>
      </trkpt>
      <trkpt lat="47.69758" lon="6.0092">
        <ele>283</ele>
        <time>2010-01-01T00:38:51Z</time>
      </trkpt>
      <trkpt lat="47.69763" lon="6.00927">
        <ele>282</ele>
        <time>2010-01-01T00:38:53Z</time>
      </trkpt>
      <trkpt lat="47.69771" lon="6.00935">
        <ele>281</ele>
        <time>2010-01-01T00:38:57Z</time>
      </trkpt>
      <trkpt lat="47.69778" lon="6.00941">
        <ele>281</ele>
        <time>2010-01-01T00:39:01Z</time>
      </trkpt>
      <trkpt lat="47.69796" lon="6.00956">
        <ele>281</ele>
        <time>2010-01-01T00:39:09Z</time>
      </trkpt>
      <trkpt lat="47.69815" lon="6.00971">
        <ele>281</ele>
        <time>2010-01-01T00:39:18Z</time>
      </trkpt>
      <trkpt lat="47.69839" lon="6.00991">
        <ele>281</ele>
        <time>2010-01-01T00:39:28Z</time>
      </trkpt>
      <trkpt lat="47.69861" lon="6.01009">
        <ele>278</ele>
        <time>2010-01-01T00:39:39Z</time>
      </trkpt>
      <trkpt lat="47.69885" lon="6.01029">
        <ele>277</ele>
        <time>2010-01-01T00:39:50Z</time>
      </trkpt>
      <trkpt lat="47.69888" lon="6.01033">
        <ele>277</ele>
        <time>2010-01-01T00:39:51Z</time>
      </trkpt>
      <trkpt lat="47.699" lon="6.01048">
        <ele>277</ele>
        <time>2010-01-01T00:39:57Z</time>
      </trkpt>
      <trkpt lat="47.69915" lon="6.01076">
        <ele>277</ele>
        <time>2010-01-01T00:40:07Z</time>
      </trkpt>
      <trkpt lat="47.69933" lon="6.01099">
        <ele>276</ele>
        <time>2010-01-01T00:40:17Z</time>
      </trkpt>
      <trkpt lat="47.69951" lon="6.0113">
        <ele>274</ele>
        <time>2010-01-01T00:40:28Z</time>
      </trkpt>
      <trkpt lat="47.69974" lon="6.01165">
        <ele>271</ele>
        <time>2010-01-01T00:40:41Z</time>
      </trkpt>
      <trkpt lat="47.69987" lon="6.01186">
        <ele>270</ele>
        <time>2010-01-01T00:40:48Z</time>
      </trkpt>
      <trkpt lat="47.69998" lon="6.01205">
        <ele>269</ele>
        <time>2010-01-01T00:40:55Z</time>
      </trkpt>
      <trkpt lat="47.7001" lon="6.01229">
        <ele>269</ele>
        <time>2010-01-01T00:41:03Z</time>
      </trkpt>
      <trkpt lat="47.70027" lon="6.01254">
        <ele>268</ele>
        <time>2010-01-01T00:41:13Z</time>
      </trkpt>
      <trkpt lat="47.70043" lon="6.01279">
        <ele>266</ele>
        <time>2010-01-01T00:41:22Z</time>
      </trkpt>
      <trkpt lat="47.70062" lon="6.0131">
        <ele>263</ele>
        <time>2010-01-01T00:41:33Z</time>
      </trkpt>
      <trkpt lat="47.70062" lon="6.0131">
        <ele>263</ele>
        <time>2010-01-01T00:41:34Z</time>
      </trkpt>
      <trkpt lat="47.70072" lon="6.01322">
        <ele>261</ele>
        <time>2010-01-01T00:41:39Z</time>
      </trkpt>
      <trkpt lat="47.70082" lon="6.01342">
        <ele>259</ele>
        <time>2010-01-01T00:41:45Z</time>
      </trkpt>
      <trkpt lat="47.70093" lon="6.01362">
        <ele>258</ele>
        <time>2010-01-01T00:41:52Z</time>
      </trkpt>
      <trkpt lat="47.70104" lon="6.01375">
        <ele>258</ele>
        <time>2010-01-01T00:41:58Z</time>
      </trkpt>
      <trkpt lat="47.7012" lon="6.01387">
        <ele>258</ele>
        <time>2010-01-01T00:42:05Z</time>
      </trkpt>
      <trkpt lat="47.70138" lon="6.0139">
        <ele>259</ele>
        <time>2010-01-01T00:42:12Z</time>
      </trkpt>
      <trkpt lat="47.70154" lon="6.01393">
        <ele>260</ele>
        <time>2010-01-01T00:42:19Z</time>
      </trkpt>
      <trkpt lat="47.7017" lon="6.01397">
        <ele>259</ele>
        <time>2010-01-01T00:42:25Z</time>
      </trkpt>
      <trkpt lat="47.70186" lon="6.01406">
        <ele>258</ele>
        <time>2010-01-01T00:42:32Z</time>
      </trkpt>
      <trkpt lat="47.70216" lon="6.01416">
        <ele>255</ele>
        <time>2010-01-01T00:42:45Z</time>
      </trkpt>
      <trkpt lat="47.70235" lon="6.0142">
        <ele>254</ele>
        <time>2010-01-01T00:42:52Z</time>
      </trkpt>
      <trkpt lat="47.70251" lon="6.01421">
        <ele>253</ele>
        <time>2010-01-01T00:42:58Z</time>
      </trkpt>
      <trkpt lat="47.70271" lon="6.01421">
        <ele>253</ele>
        <time>2010-01-01T00:43:07Z</time>
      </trkpt>
      <trkpt lat="47.70286" lon="6.01423">
        <ele>254</ele>
        <time>2010-01-01T00:43:13Z</time>
      </trkpt>
      <trkpt lat="47.70299" lon="6.01425">
        <ele>254</ele>
        <time>2010-01-01T00:43:18Z</time>
      </trkpt>
      <trkpt lat="47.7035" lon="6.01453">
        <ele>252</ele>
        <time>2010-01-01T00:43:39Z</time>
      </trkpt>
      <trkpt lat="47.70306" lon="6.01542">
        <ele>257</ele>
        <time>2010-01-01T00:44:09Z</time>
      </trkpt>
      <trkpt lat="47.70164" lon="6.01884">
        <ele>256</ele>
        <time>2010-01-01T00:45:57Z</time>
      </trkpt>
      <trkpt lat="47.70096" lon="6.01896">
        <ele>252</ele>
        <time>2010-01-01T00:46:25Z</time>
      </trkpt>
      <trkpt lat="47.70071" lon="6.01918">
        <ele>247</ele>
        <time>2010-01-01T00:46:36Z</time>
      </trkpt>
      <trkpt lat="47.70069" lon="6.0192">
        <ele>246</ele>
        <time>2010-01-01T00:46:37Z</time>
      </trkpt>
      <trkpt lat="47.70041" lon="6.01954">
        <ele>243</ele>
        <time>2010-01-01T00:46:52Z</time>
      </trkpt>
      <trkpt lat="47.70036" lon="6.01964">
        <ele>243</ele>
        <time>2010-01-01T00:46:55Z</time>
      </trkpt>
      <trkpt lat="47.70027" lon="6.01979">
        <ele>244</ele>
        <time>2010-01-01T00:47:01Z</time>
      </trkpt>
      <trkpt lat="47.70015" lon="6.02001">
        <ele>245</ele>
        <time>2010-01-01T00:47:08Z</time>
      </trkpt>
      <trkpt lat="47.70003" lon="6.02019">
        <ele>245</ele>
        <time>2010-01-01T00:47:15Z</time>
      </trkpt>
      <trkpt lat="47.69991" lon="6.02035">
        <ele>244</ele>
        <time>2010-01-01T00:47:21Z</time>
      </trkpt>
      <trkpt lat="47.69978" lon="6.02048">
        <ele>244</ele>
        <time>2010-01-01T00:47:28Z</time>
      </trkpt>
      <trkpt lat="47.69962" lon="6.02062">
        <ele>245</ele>
        <time>2010-01-01T00:47:35Z</time>
      </trkpt>
      <trkpt lat="47.69955" lon="6.0207">
        <ele>246</ele>
        <time>2010-01-01T00:47:39Z</time>
      </trkpt>
      <trkpt lat="47.69943" lon="6.02087">
        <ele>247</ele>
        <time>2010-01-01T00:47:46Z</time>
      </trkpt>
      <trkpt lat="47.69929" lon="6.02104">
        <ele>247</ele>
        <time>2010-01-01T00:47:53Z</time>
      </trkpt>
      <trkpt lat="47.69917" lon="6.02121">
        <ele>247</ele>
        <time>2010-01-01T00:47:59Z</time>
      </trkpt>
      <trkpt lat="47.69916" lon="6.02122">
        <ele>247</ele>
        <time>2010-01-01T00:48:00Z</time>
      </trkpt>
      <trkpt lat="47.69906" lon="6.02139">
        <ele>246</ele>
        <time>2010-01-01T00:48:06Z</time>
      </trkpt>
      <trkpt lat="47.699" lon="6.02157">
        <ele>244</ele>
        <time>2010-01-01T00:48:11Z</time>
      </trkpt>
      <trkpt lat="47.69891" lon="6.02192">
        <ele>242</ele>
        <time>2010-01-01T00:48:21Z</time>
      </trkpt>
      <trkpt lat="47.69889" lon="6.02203">
        <ele>242</ele>
        <time>2010-01-01T00:48:24Z</time>
      </trkpt>
      <trkpt lat="47.69884" lon="6.02215">
        <ele>242</ele>
        <time>2010-01-01T00:48:28Z</time>
      </trkpt>
      <trkpt lat="47.69877" lon="6.02231">
        <ele>242</ele>
        <time>2010-01-01T00:48:33Z</time>
      </trkpt>
      <trkpt lat="47.6987" lon="6.02248">
        <ele>242</ele>
        <time>2010-01-01T00:48:39Z</time>
      </trkpt>
      <trkpt lat="47.69862" lon="6.02261">
        <ele>242</ele>
        <time>2010-01-01T00:48:43Z</time>
      </trkpt>
      <trkpt lat="47.69857" lon="6.02266">
        <ele>241</ele>
        <time>2010-01-01T00:48:46Z</time>
      </trkpt>
      <trkpt lat="47.69851" lon="6.02273">
        <ele>241</ele>
        <time>2010-01-01T00:48:49Z</time>
      </trkpt>
      <trkpt lat="47.69838" lon="6.02283">
        <ele>240</ele>
        <time>2010-01-01T00:48:55Z</time>
      </trkpt>
      <trkpt lat="47.69825" lon="6.0229">
        <ele>239</ele>
        <time>2010-01-01T00:49:00Z</time>
      </trkpt>
      <trkpt lat="47.69812" lon="6.02299">
        <ele>238</ele>
        <time>2010-01-01T00:49:06Z</time>
      </trkpt>
      <trkpt lat="47.698" lon="6.02303">
        <ele>238</ele>
        <time>2010-01-01T00:49:11Z</time>
      </trkpt>
      <trkpt lat="47.69779" lon="6.02307">
        <ele>238</ele>
        <time>2010-01-01T00:49:20Z</time>
      </trkpt>
      <trkpt lat="47.69766" lon="6.02309">
        <ele>239</ele>
        <time>2010-01-01T00:49:25Z</time>
      </trkpt>
      <trkpt lat="47.6975" lon="6.02311">
        <ele>239</ele>
        <time>2010-01-01T00:49:31Z</time>
      </trkpt>
      <trkpt lat="47.69735" lon="6.02314">
        <ele>239</ele>
        <time>2010-01-01T00:49:37Z</time>
      </trkpt>
      <trkpt lat="47.69722" lon="6.02317">
        <ele>238</ele>
        <time>2010-01-01T00:49:43Z</time>
      </trkpt>
      <trkpt lat="47.69707" lon="6.02322">
        <ele>237</ele>
        <time>2010-01-01T00:49:49Z</time>
      </trkpt>
      <trkpt lat="47.69695" lon="6.02327">
        <ele>236</ele>
        <time>2010-01-01T00:49:54Z</time>
      </trkpt>
      <trkpt lat="47.69683" lon="6.02333">
        <ele>235</ele>
        <time>2010-01-01T00:49:59Z</time>
      </trkpt>
      <trkpt lat="47.69673" lon="6.02337">
        <ele>234</ele>
        <time>2010-01-01T00:50:03Z</time>
      </trkpt>
      <trkpt lat="47.69664" lon="6.02342">
        <ele>233</ele>
        <time>2010-01-01T00:50:07Z</time>
      </trkpt>
      <trkpt lat="47.69656" lon="6.02348">
        <ele>233</ele>
        <time>2010-01-01T00:50:10Z</time>
      </trkpt>
      <trkpt lat="47.6965" lon="6.02355">
        <ele>232</ele>
        <time>2010-01-01T00:50:13Z</time>
      </trkpt>
      <trkpt lat="47.69642" lon="6.02364">
        <ele>232</ele>
        <time>2010-01-01T00:50:17Z</time>
      </trkpt>
      <trkpt lat="47.69636" lon="6.02376">
        <ele>232</ele>
        <time>2010-01-01T00:50:21Z</time>
      </trkpt>
      <trkpt lat="47.6963" lon="6.02387">
        <ele>232</ele>
        <time>2010-01-01T00:50:25Z</time>
      </trkpt>
      <trkpt lat="47.69619" lon="6.02408">
        <ele>233</ele>
        <time>2010-01-01T00:50:32Z</time>
      </trkpt>
      <trkpt lat="47.69611" lon="6.02423">
        <ele>233</ele>
        <time>2010-01-01T00:50:37Z</time>
      </trkpt>
      <trkpt lat="47.69605" lon="6.02439">
        <ele>233</ele>
        <time>2010-01-01T00:50:42Z</time>
      </trkpt>
      <trkpt lat="47.69601" lon="6.02451">
        <ele>234</ele>
        <time>2010-01-01T00:50:46Z</time>
      </trkpt>
      <trkpt lat="47.69596" lon="6.02464">
        <ele>234</ele>
        <time>2010-01-01T00:50:50Z</time>
      </trkpt>
      <trkpt lat="47.69593" lon="6.02477">
        <ele>235</ele>
        <time>2010-01-01T00:50:54Z</time>
      </trkpt>
      <trkpt lat="47.69591" lon="6.02489">
        <ele>236</ele>
        <time>2010-01-01T00:50:57Z</time>
      </trkpt>
      <trkpt lat="47.69589" lon="6.025">
        <ele>236</ele>
        <time>2010-01-01T00:51:00Z</time>
      </trkpt>
      <trkpt lat="47.69588" lon="6.02512">
        <ele>237</ele>
        <time>2010-01-01T00:51:03Z</time>
      </trkpt>
      <trkpt lat="47.69586" lon="6.02527">
        <ele>237</ele>
        <time>2010-01-01T00:51:08Z</time>
      </trkpt>
      <trkpt lat="47.69583" lon="6.02545">
        <ele>239</ele>
        <time>2010-01-01T00:51:13Z</time>
      </trkpt>
      <trkpt lat="47.6958" lon="6.02561">
        <ele>239</ele>
        <time>2010-01-01T00:51:17Z</time>
      </trkpt>
      <trkpt lat="47.69577" lon="6.02585">
        <ele>240</ele>
        <time>2010-01-01T00:51:24Z</time>
      </trkpt>
      <trkpt lat="47.69573" lon="6.02612">
        <ele>241</ele>
        <time>2010-01-01T00:51:31Z</time>
      </trkpt>
      <trkpt lat="47.69571" lon="6.02628">
        <ele>241</ele>
        <time>2010-01-01T00:51:35Z</time>
      </trkpt>
      <trkpt lat="47.69568" lon="6.02644">
        <ele>241</ele>
        <time>2010-01-01T00:51:40Z</time>
      </trkpt>
      <trkpt lat="47.69564" lon="6.02657">
        <ele>240</ele>
        <time>2010-01-01T00:51:44Z</time>
      </trkpt>
      <trkpt lat="47.6956" lon="6.02668">
        <ele>239</ele>
        <time>2010-01-01T00:51:47Z</time>
      </trkpt>
      <trkpt lat="47.69553" lon="6.02682">
        <ele>238</ele>
        <time>2010-01-01T00:51:52Z</time>
      </trkpt>
      <trkpt lat="47.69548" lon="6.02689">
        <ele>238</ele>
        <time>2010-01-01T00:51:55Z</time>
      </trkpt>
      <trkpt lat="47.69535" lon="6.02706">
        <ele>238</ele>
        <time>2010-01-01T00:52:02Z</time>
      </trkpt>
      <trkpt lat="47.69524" lon="6.02718">
        <ele>239</ele>
        <time>2010-01-01T00:52:07Z</time>
      </trkpt>
      <trkpt lat="47.69517" lon="6.02726">
        <ele>239</ele>
        <time>2010-01-01T00:52:10Z</time>
      </trkpt>
      <trkpt lat="47.69504" lon="6.02743">
        <ele>240</ele>
        <time>2010-01-01T00:52:17Z</time>
      </trkpt>
      <trkpt lat="47.69489" lon="6.02767">
        <ele>239</ele>
        <time>2010-01-01T00:52:26Z</time>
      </trkpt>
      <trkpt lat="47.69475" lon="6.02787">
        <ele>238</ele>
        <time>2010-01-01T00:52:34Z</time>
      </trkpt>
      <trkpt lat="47.69467" lon="6.02803">
        <ele>237</ele>
        <time>2010-01-01T00:52:40Z</time>
      </trkpt>
      <trkpt lat="47.69461" lon="6.02811">
        <ele>237</ele>
        <time>2010-01-01T00:52:43Z</time>
      </trkpt>
      <trkpt lat="47.69459" lon="6.02815">
        <ele>237</ele>
        <time>2010-01-01T00:52:44Z</time>
      </trkpt>
      <trkpt lat="47.6945" lon="6.02825">
        <ele>236</ele>
        <time>2010-01-01T00:52:48Z</time>
      </trkpt>
      <trkpt lat="47.69444" lon="6.02835">
        <ele>235</ele>
        <time>2010-01-01T00:52:52Z</time>
      </trkpt>
      <trkpt lat="47.69436" lon="6.02843">
        <ele>235</ele>
        <time>2010-01-01T00:52:56Z</time>
      </trkpt>
      <trkpt lat="47.6942" lon="6.02861">
        <ele>234</ele>
        <time>2010-01-01T00:53:04Z</time>
      </trkpt>
      <trkpt lat="47.69412" lon="6.02867">
        <ele>234</ele>
        <time>2010-01-01T00:53:08Z</time>
      </trkpt>
      <trkpt lat="47.69383" lon="6.02898">
        <ele>234</ele>
        <time>2010-01-01T00:53:22Z</time>
      </trkpt>
      <trkpt lat="47.69372" lon="6.02908">
        <ele>235</ele>
        <time>2010-01-01T00:53:27Z</time>
      </trkpt>
      <trkpt lat="47.69362" lon="6.02919">
        <ele>235</ele>
        <time>2010-01-01T00:53:32Z</time>
      </trkpt>
      <trkpt lat="47.69354" lon="6.02928">
        <ele>236</ele>
        <time>2010-01-01T00:53:36Z</time>
      </trkpt>
      <trkpt lat="47.69345" lon="6.02935">
        <ele>237</ele>
        <time>2010-01-01T00:53:40Z</time>
      </trkpt>
      <trkpt lat="47.69337" lon="6.0294">
        <ele>238</ele>
        <time>2010-01-01T00:53:44Z</time>
      </trkpt>
      <trkpt lat="47.69328" lon="6.02944">
        <ele>239</ele>
        <time>2010-01-01T00:53:47Z</time>
      </trkpt>
      <trkpt lat="47.6932" lon="6.02947">
        <ele>240</ele>
        <time>2010-01-01T00:53:51Z</time>
      </trkpt>
      <trkpt lat="47.69316" lon="6.0295">
        <ele>240</ele>
        <time>2010-01-01T00:53:52Z</time>
      </trkpt>
      <trkpt lat="47.69313" lon="6.02954">
        <ele>240</ele>
        <time>2010-01-01T00:53:54Z</time>
      </trkpt>
      <trkpt lat="47.69309" lon="6.02952">
        <ele>240</ele>
        <time>2010-01-01T00:53:56Z</time>
      </trkpt>
      <trkpt lat="47.69305" lon="6.02952">
        <ele>241</ele>
        <time>2010-01-01T00:53:58Z</time>
      </trkpt>
      <trkpt lat="47.69295" lon="6.02956">
        <ele>241</ele>
        <time>2010-01-01T00:54:02Z</time>
      </trkpt>
      <trkpt lat="47.6928" lon="6.02965">
        <ele>241</ele>
        <time>2010-01-01T00:54:08Z</time>
      </trkpt>
      <trkpt lat="47.69267" lon="6.02977">
        <ele>241</ele>
        <time>2010-01-01T00:54:14Z</time>
      </trkpt>
      <trkpt lat="47.69247" lon="6.02998">
        <ele>241</ele>
        <time>2010-01-01T00:54:24Z</time>
      </trkpt>
      <trkpt lat="47.69226" lon="6.03021">
        <ele>240</ele>
        <time>2010-01-01T00:54:34Z</time>
      </trkpt>
      <trkpt lat="47.69212" lon="6.03034">
        <ele>240</ele>
        <time>2010-01-01T00:54:41Z</time>
      </trkpt>
      <trkpt lat="47.69199" lon="6.03045">
        <ele>240</ele>
        <time>2010-01-01T00:54:47Z</time>
      </trkpt>
      <trkpt lat="47.6919" lon="6.03054">
        <ele>241</ele>
        <time>2010-01-01T00:54:51Z</time>
      </trkpt>
      <trkpt lat="47.69163" lon="6.03076">
        <ele>240</ele>
        <time>2010-01-01T00:55:04Z</time>
      </trkpt>
      <trkpt lat="47.69147" lon="6.03091">
        <ele>240</ele>
        <time>2010-01-01T00:55:11Z</time>
      </trkpt>
      <trkpt lat="47.6914" lon="6.03097">
        <ele>240</ele>
        <time>2010-01-01T00:55:14Z</time>
      </trkpt>
      <trkpt lat="47.69135" lon="6.03097">
        <ele>239</ele>
        <time>2010-01-01T00:55:16Z</time>
      </trkpt>
      <trkpt lat="47.69132" lon="6.03098">
        <ele>239</ele>
        <time>2010-01-01T00:55:18Z</time>
      </trkpt>
      <trkpt lat="47.69116" lon="6.03104">
        <ele>238</ele>
        <time>2010-01-01T00:55:24Z</time>
      </trkpt>
      <trkpt lat="47.69085" lon="6.03128">
        <ele>237</ele>
        <time>2010-01-01T00:55:38Z</time>
      </trkpt>
      <trkpt lat="47.69049" lon="6.03154">
        <ele>236</ele>
        <time>2010-01-01T00:55:54Z</time>
      </trkpt>
      <trkpt lat="47.69021" lon="6.03174">
        <ele>236</ele>
        <time>2010-01-01T00:56:07Z</time>
      </trkpt>
      <trkpt lat="47.6899" lon="6.03201">
        <ele>236</ele>
        <time>2010-01-01T00:56:21Z</time>
      </trkpt>
      <trkpt lat="47.68975" lon="6.03215">
        <ele>235</ele>
        <time>2010-01-01T00:56:28Z</time>
      </trkpt>
      <trkpt lat="47.68947" lon="6.03237">
        <ele>234</ele>
        <time>2010-01-01T00:56:41Z</time>
      </trkpt>
      <trkpt lat="47.68916" lon="6.03261">
        <ele>233</ele>
        <time>2010-01-01T00:56:55Z</time>
      </trkpt>
      <trkpt lat="47.68895" lon="6.0328">
        <ele>233</ele>
        <time>2010-01-01T00:57:05Z</time>
      </trkpt>
      <trkpt lat="47.68882" lon="6.03294">
        <ele>233</ele>
        <time>2010-01-01T00:57:11Z</time>
      </trkpt>
      <trkpt lat="47.68872" lon="6.03305">
        <ele>233</ele>
        <time>2010-01-01T00:57:16Z</time>
      </trkpt>
      <trkpt lat="47.68859" lon="6.03319">
        <ele>233</ele>
        <time>2010-01-01T00:57:23Z</time>
      </trkpt>
      <trkpt lat="47.68849" lon="6.03333">
        <ele>233</ele>
        <time>2010-01-01T00:57:28Z</time>
      </trkpt>
      <trkpt lat="47.68839" lon="6.03346">
        <ele>234</ele>
        <time>2010-01-01T00:57:33Z</time>
      </trkpt>
      <trkpt lat="47.68829" lon="6.0336">
        <ele>234</ele>
        <time>2010-01-01T00:57:39Z</time>
      </trkpt>
      <trkpt lat="47.68824" lon="6.03369">
        <ele>234</ele>
        <time>2010-01-01T00:57:42Z</time>
      </trkpt>
      <trkpt lat="47.68815" lon="6.03389">
        <ele>233</ele>
        <time>2010-01-01T00:57:48Z</time>
      </trkpt>
      <trkpt lat="47.68814" lon="6.03396">
        <ele>233</ele>
        <time>2010-01-01T00:57:50Z</time>
      </trkpt>
      <trkpt lat="47.68813" lon="6.03402">
        <ele>233</ele>
        <time>2010-01-01T00:57:52Z</time>
      </trkpt>
      <trkpt lat="47.68811" lon="6.03406">
        <ele>233</ele>
        <time>2010-01-01T00:57:53Z</time>
      </trkpt>
      <trkpt lat="47.68802" lon="6.0342">
        <ele>233</ele>
        <time>2010-01-01T00:57:59Z</time>
      </trkpt>
      <trkpt lat="47.6879" lon="6.03438">
        <ele>233</ele>
        <time>2010-01-01T00:58:06Z</time>
      </trkpt>
      <trkpt lat="47.68771" lon="6.03459">
        <ele>232</ele>
        <time>2010-01-01T00:58:15Z</time>
      </trkpt>
      <trkpt lat="47.68755" lon="6.03481">
        <ele>230</ele>
        <time>2010-01-01T00:58:24Z</time>
      </trkpt>
      <trkpt lat="47.68741" lon="6.03496">
        <ele>228</ele>
        <time>2010-01-01T00:58:31Z</time>
      </trkpt>
      <trkpt lat="47.68729" lon="6.03506">
        <ele>226</ele>
        <time>2010-01-01T00:58:36Z</time>
      </trkpt>
      <trkpt lat="47.68714" lon="6.03517">
        <ele>224</ele>
        <time>2010-01-01T00:58:43Z</time>
      </trkpt>
      <trkpt lat="47.68708" lon="6.03522">
        <ele>223</ele>
        <time>2010-01-01T00:58:45Z</time>
      </trkpt>
      <trkpt lat="47.68696" lon="6.0353">
        <ele>222</ele>
        <time>2010-01-01T00:58:51Z</time>
      </trkpt>
      <trkpt lat="47.68666" lon="6.03545">
        <ele>218</ele>
        <time>2010-01-01T00:59:03Z</time>
      </trkpt>
      <trkpt lat="47.68656" lon="6.03549">
        <ele>217</ele>
        <time>2010-01-01T00:59:07Z</time>
      </trkpt>
      <trkpt lat="47.68648" lon="6.0355">
        <ele>216</ele>
        <time>2010-01-01T00:59:11Z</time>
      </trkpt>
      <trkpt lat="47.68641" lon="6.03549">
        <ele>216</ele>
        <time>2010-01-01T00:59:13Z</time>
      </trkpt>
      <trkpt lat="47.68636" lon="6.03546">
        <ele>216</ele>
        <time>2010-01-01T00:59:16Z</time>
      </trkpt>
      <trkpt lat="47.68629" lon="6.03544">
        <ele>215</ele>
        <time>2010-01-01T00:59:19Z</time>
      </trkpt>
      <trkpt lat="47.6862" lon="6.03538">
        <ele>215</ele>
        <time>2010-01-01T00:59:23Z</time>
      </trkpt>
      <trkpt lat="47.68614" lon="6.03536">
        <ele>214</ele>
        <time>2010-01-01T00:59:25Z</time>
      </trkpt>
      <trkpt lat="47.68604" lon="6.03536">
        <ele>214</ele>
        <time>2010-01-01T00:59:29Z</time>
      </trkpt>
      <trkpt lat="47.68597" lon="6.03537">
        <ele>214</ele>
        <time>2010-01-01T00:59:32Z</time>
      </trkpt>
      <trkpt lat="47.68592" lon="6.0354">
        <ele>214</ele>
        <time>2010-01-01T00:59:34Z</time>
      </trkpt>
      <trkpt lat="47.68587" lon="6.03542">
        <ele>214</ele>
        <time>2010-01-01T00:59:36Z</time>
      </trkpt>
      <trkpt lat="47.68581" lon="6.03546">
        <ele>214</ele>
        <time>2010-01-01T00:59:39Z</time>
      </trkpt>
      <trkpt lat="47.68578" lon="6.03547">
        <ele>214</ele>
        <time>2010-01-01T00:59:40Z</time>
      </trkpt>
      <trkpt lat="47.68572" lon="6.03549">
        <ele>214</ele>
        <time>2010-01-01T00:59:43Z</time>
      </trkpt>
      <trkpt lat="47.68575" lon="6.03569">
        <ele>213</ele>
        <time>2010-01-01T00:59:48Z</time>
      </trkpt>
      <trkpt lat="47.68577" lon="6.03583">
        <ele>213</ele>
        <time>2010-01-01T00:59:52Z</time>
      </trkpt>
      <trkpt lat="47.68581" lon="6.03595">
        <ele>213</ele>
        <time>2010-01-01T00:59:56Z</time>
      </trkpt>
      <trkpt lat="47.68586" lon="6.03604">
        <ele>213</ele>
        <time>2010-01-01T00:59:59Z</time>
      </trkpt>
      <trkpt lat="47.6859" lon="6.03613">
        <ele>212</ele>
        <time>2010-01-01T01:00:02Z</time>
      </trkpt>
      <trkpt lat="47.68594" lon="6.03617">
        <ele>212</ele>
        <time>2010-01-01T01:00:04Z</time>
      </trkpt>
      <trkpt lat="47.68602" lon="6.0362">
        <ele>212</ele>
        <time>2010-01-01T01:00:07Z</time>
      </trkpt>
      <trkpt lat="47.68609" lon="6.03621">
        <ele>212</ele>
        <time>2010-01-01T01:00:10Z</time>
      </trkpt>
      <trkpt lat="47.68604" lon="6.03637">
        <ele>211</ele>
        <time>2010-01-01T01:00:15Z</time>
      </trkpt>
      <trkpt lat="47.686" lon="6.03643">
        <ele>210</ele>
        <time>2010-01-01T01:00:17Z</time>
      </trkpt>
      <trkpt lat="47.68596" lon="6.03646">
        <ele>210</ele>
        <time>2010-01-01T01:00:19Z</time>
      </trkpt>
      <trkpt lat="47.6859" lon="6.03647">
        <ele>210</ele>
        <time>2010-01-01T01:00:21Z</time>
      </trkpt>
      <trkpt lat="47.68586" lon="6.03649">
        <ele>210</ele>
        <time>2010-01-01T01:00:23Z</time>
      </trkpt>
      <trkpt lat="47.68567" lon="6.03648">
        <ele>210</ele>
        <time>2010-01-01T01:00:30Z</time>
      </trkpt>
      <trkpt lat="47.6855" lon="6.03645">
        <ele>210</ele>
        <time>2010-01-01T01:00:37Z</time>
      </trkpt>
      <trkpt lat="47.68527" lon="6.03638">
        <ele>209</ele>
        <time>2010-01-01T01:00:47Z</time>
      </trkpt>
      <trkpt lat="47.68524" lon="6.03636">
        <ele>209</ele>
        <time>2010-01-01T01:00:48Z</time>
      </trkpt>
      <trkpt lat="47.68497" lon="6.03625">
        <ele>209</ele>
        <time>2010-01-01T01:00:59Z</time>
      </trkpt>
      <trkpt lat="47.68474" lon="6.03616">
        <ele>209</ele>
        <time>2010-01-01T01:01:09Z</time>
      </trkpt>
      <trkpt lat="47.68462" lon="6.03615">
        <ele>208</ele>
        <time>2010-01-01T01:01:13Z</time>
      </trkpt>
      <trkpt lat="47.68455" lon="6.03616">
        <ele>208</ele>
        <time>2010-01-01T01:01:16Z</time>
      </trkpt>
      <trkpt lat="47.68433" lon="6.03624">
        <ele>207</ele>
        <time>2010-01-01T01:01:25Z</time>
      </trkpt>
      <trkpt lat="47.68426" lon="6.03623">
        <ele>207</ele>
        <time>2010-01-01T01:01:28Z</time>
      </trkpt>
      <trkpt lat="47.68416" lon="6.03619">
        <ele>207</ele>
        <time>2010-01-01T01:01:32Z</time>
      </trkpt>
      <trkpt lat="47.68401" lon="6.03611">
        <ele>207</ele>
        <time>2010-01-01T01:01:39Z</time>
      </trkpt>
      <trkpt lat="47.68383" lon="6.03601">
        <ele>206</ele>
        <time>2010-01-01T01:01:46Z</time>
      </trkpt>
      <trkpt lat="47.68369" lon="6.03595">
        <ele>206</ele>
        <time>2010-01-01T01:01:52Z</time>
      </trkpt>
      <trkpt lat="47.68348" lon="6.03587">
        <ele>206</ele>
        <time>2010-01-01T01:02:01Z</time>
      </trkpt>
      <trkpt lat="47.68327" lon="6.03582">
        <ele>206</ele>
        <time>2010-01-01T01:02:09Z</time>
      </trkpt>
      <trkpt lat="47.68307" lon="6.03576">
        <ele>206</ele>
        <time>2010-01-01T01:02:18Z</time>
      </trkpt>
      <trkpt lat="47.68281" lon="6.03571">
        <ele>205</ele>
        <time>2010-01-01T01:02:28Z</time>
      </trkpt>
      <trkpt lat="47.68258" lon="6.03569">
        <ele>206</ele>
        <time>2010-01-01T01:02:37Z</time>
      </trkpt>
      <trkpt lat="47.68237" lon="6.03567">
        <ele>206</ele>
        <time>2010-01-01T01:02:46Z</time>
      </trkpt>
      <trkpt lat="47.68221" lon="6.03566">
        <ele>206</ele>
        <time>2010-01-01T01:02:52Z</time>
      </trkpt>
      <trkpt lat="47.68205" lon="6.03566">
        <ele>206</ele>
        <time>2010-01-01T01:02:59Z</time>
      </trkpt>
      <trkpt lat="47.68182" lon="6.0357">
        <ele>205</ele>
        <time>2010-01-01T01:03:08Z</time>
      </trkpt>
      <trkpt lat="47.68159" lon="6.03575">
        <ele>206</ele>
        <time>2010-01-01T01:03:17Z</time>
      </trkpt>
      <trkpt lat="47.68146" lon="6.03579">
        <ele>206</ele>
        <time>2010-01-01T01:03:22Z</time>
      </trkpt>
      <trkpt lat="47.68134" lon="6.0358">
        <ele>206</ele>
        <time>2010-01-01T01:03:27Z</time>
      </trkpt>
      <trkpt lat="47.68125" lon="6.03581">
        <ele>206</ele>
        <time>2010-01-01T01:03:31Z</time>
      </trkpt>
      <trkpt lat="47.68119" lon="6.03581">
        <ele>206</ele>
        <time>2010-01-01T01:03:33Z</time>
      </trkpt>
      <trkpt lat="47.68113" lon="6.0358">
        <ele>206</ele>
        <time>2010-01-01T01:03:36Z</time>
      </trkpt>
      <trkpt lat="47.68093" lon="6.03574">
        <ele>205</ele>
        <time>2010-01-01T01:03:44Z</time>
      </trkpt>
      <trkpt lat="47.68082" lon="6.03572">
        <ele>205</ele>
        <time>2010-01-01T01:03:48Z</time>
      </trkpt>
      <trkpt lat="47.68062" lon="6.03569">
        <ele>206</ele>
        <time>2010-01-01T01:03:56Z</time>
      </trkpt>
      <trkpt lat="47.68051" lon="6.03568">
        <ele>206</ele>
        <time>2010-01-01T01:04:01Z</time>
      </trkpt>
      <trkpt lat="47.68039" lon="6.03566">
        <ele>206</ele>
        <time>2010-01-01T01:04:06Z</time>
      </trkpt>
      <trkpt lat="47.68031" lon="6.03571">
        <ele>206</ele>
        <time>2010-01-01T01:04:09Z</time>
      </trkpt>
      <trkpt lat="47.68022" lon="6.03581">
        <ele>206</ele>
        <time>2010-01-01T01:04:13Z</time>
      </trkpt>
      <trkpt lat="47.68012" lon="6.0359">
        <ele>206</ele>
        <time>2010-01-01T01:04:18Z</time>
      </trkpt>
      <trkpt lat="47.68001" lon="6.03599">
        <ele>206</ele>
        <time>2010-01-01T01:04:23Z</time>
      </trkpt>
      <trkpt lat="47.67985" lon="6.03611">
        <ele>205</ele>
        <time>2010-01-01T01:04:30Z</time>
      </trkpt>
      <trkpt lat="47.67968" lon="6.03621">
        <ele>204</ele>
        <time>2010-01-01T01:04:38Z</time>
      </trkpt>
      <trkpt lat="47.67947" lon="6.03635">
        <ele>205</ele>
        <time>2010-01-01T01:04:47Z</time>
      </trkpt>
      <trkpt lat="47.67926" lon="6.03647">
        <ele>206</ele>
        <time>2010-01-01T01:04:56Z</time>
      </trkpt>
      <trkpt lat="47.67911" lon="6.03657">
        <ele>206</ele>
        <time>2010-01-01T01:05:03Z</time>
      </trkpt>
      <trkpt lat="47.67908" lon="6.03659">
        <ele>206</ele>
        <time>2010-01-01T01:05:04Z</time>
      </trkpt>
      <trkpt lat="47.67892" lon="6.0367">
        <ele>206</ele>
        <time>2010-01-01T01:05:11Z</time>
      </trkpt>
      <trkpt lat="47.67874" lon="6.03678">
        <ele>206</ele>
        <time>2010-01-01T01:05:18Z</time>
      </trkpt>
      <trkpt lat="47.67858" lon="6.03689">
        <ele>206</ele>
        <time>2010-01-01T01:05:25Z</time>
      </trkpt>
      <trkpt lat="47.67842" lon="6.037">
        <ele>207</ele>
        <time>2010-01-01T01:05:32Z</time>
      </trkpt>
      <trkpt lat="47.67826" lon="6.03711">
        <ele>208</ele>
        <time>2010-01-01T01:05:39Z</time>
      </trkpt>
      <trkpt lat="47.67809" lon="6.03724">
        <ele>209</ele>
        <time>2010-01-01T01:05:47Z</time>
      </trkpt>
      <trkpt lat="47.67796" lon="6.03736">
        <ele>210</ele>
        <time>2010-01-01T01:05:53Z</time>
      </trkpt>
      <trkpt lat="47.67787" lon="6.03744">
        <ele>210</ele>
        <time>2010-01-01T01:05:57Z</time>
      </trkpt>
      <trkpt lat="47.67782" lon="6.03748">
        <ele>210</ele>
        <time>2010-01-01T01:06:00Z</time>
      </trkpt>
      <trkpt lat="47.67754" lon="6.03776">
        <ele>211</ele>
        <time>2010-01-01T01:06:13Z</time>
      </trkpt>
      <trkpt lat="47.67709" lon="6.03818">
        <ele>209</ele>
        <time>2010-01-01T01:06:35Z</time>
      </trkpt>
      <trkpt lat="47.67675" lon="6.03853">
        <ele>209</ele>
        <time>2010-01-01T01:06:51Z</time>
      </trkpt>
      <trkpt lat="47.67624" lon="6.03914">
        <ele>208</ele>
        <time>2010-01-01T01:07:17Z</time>
      </trkpt>
      <trkpt lat="47.67601" lon="6.03946">
        <ele>206</ele>
        <time>2010-01-01T01:07:30Z</time>
      </trkpt>
      <trkpt lat="47.67563" lon="6.03981">
        <ele>204</ele>
        <time>2010-01-01T01:07:48Z</time>
      </trkpt>
      <trkpt lat="47.67543" lon="6.03986">
        <ele>207</ele>
        <time>2010-01-01T01:07:56Z</time>
      </trkpt>
      <trkpt lat="47.67525" lon="6.03983">
        <ele>209</ele>
        <time>2010-01-01T01:08:03Z</time>
      </trkpt>
      <trkpt lat="47.67494" lon="6.03944">
        <ele>206</ele>
        <time>2010-01-01T01:08:20Z</time>
      </trkpt>
      <trkpt lat="47.67424" lon="6.03828">
        <ele>209</ele>
        <time>2010-01-01T01:09:02Z</time>
      </trkpt>
      <trkpt lat="47.67407" lon="6.03794">
        <ele>211</ele>
        <time>2010-01-01T01:09:13Z</time>
      </trkpt>
      <trkpt lat="47.67371" lon="6.03737">
        <ele>209</ele>
        <time>2010-01-01T01:09:34Z</time>
      </trkpt>
      <trkpt lat="47.67365" lon="6.03724">
        <ele>208</ele>
        <time>2010-01-01T01:09:38Z</time>
      </trkpt>
      <trkpt lat="47.67358" lon="6.03712">
        <ele>208</ele>
        <time>2010-01-01T01:09:43Z</time>
      </trkpt>
      <trkpt lat="47.67349" lon="6.03683">
        <ele>207</ele>
        <time>2010-01-01T01:09:51Z</time>
      </trkpt>
      <trkpt lat="47.67331" lon="6.03623">
        <ele>208</ele>
        <time>2010-01-01T01:10:09Z</time>
      </trkpt>
      <trkpt lat="47.67316" lon="6.03559">
        <ele>208</ele>
        <time>2010-01-01T01:10:27Z</time>
      </trkpt>
      <trkpt lat="47.67313" lon="6.03545">
        <ele>208</ele>
        <time>2010-01-01T01:10:31Z</time>
      </trkpt>
      <trkpt lat="47.67298" lon="6.03481">
        <ele>208</ele>
        <time>2010-01-01T01:10:49Z</time>
      </trkpt>
      <trkpt lat="47.67285" lon="6.03422">
        <ele>207</ele>
        <time>2010-01-01T01:11:06Z</time>
      </trkpt>
      <trkpt lat="47.67272" lon="6.03369">
        <ele>211</ele>
        <time>2010-01-01T01:11:21Z</time>
      </trkpt>
      <trkpt lat="47.67261" lon="6.0333">
        <ele>211</ele>
        <time>2010-01-01T01:11:33Z</time>
      </trkpt>
      <trkpt lat="47.67241" lon="6.03264">
        <ele>205</ele>
        <time>2010-01-01T01:11:52Z</time>
      </trkpt>
      <trkpt lat="47.67234" lon="6.03223">
        <ele>205</ele>
        <time>2010-01-01T01:12:03Z</time>
      </trkpt>
      <trkpt lat="47.67228" lon="6.03179">
        <ele>207</ele>
        <time>2010-01-01T01:12:15Z</time>
      </trkpt>
      <trkpt lat="47.67226" lon="6.03155">
        <ele>207</ele>
        <time>2010-01-01T01:12:22Z</time>
      </trkpt>
      <trkpt lat="47.67222" lon="6.03084">
        <ele>206</ele>
        <time>2010-01-01T01:12:41Z</time>
      </trkpt>
      <trkpt lat="47.67213" lon="6.03026">
        <ele>207</ele>
        <time>2010-01-01T01:12:57Z</time>
      </trkpt>
      <trkpt lat="47.67205" lon="6.02986">
        <ele>208</ele>
        <time>2010-01-01T01:13:09Z</time>
      </trkpt>
      <trkpt lat="47.67196" lon="6.02949">
        <ele>208</ele>
        <time>2010-01-01T01:13:19Z</time>
      </trkpt>
      <trkpt lat="47.67191" lon="6.02931">
        <ele>210</ele>
        <time>2010-01-01T01:13:25Z</time>
      </trkpt>
      <trkpt lat="47.67174" lon="6.02885">
        <ele>212</ele>
        <time>2010-01-01T01:13:39Z</time>
      </trkpt>
      <trkpt lat="47.67164" lon="6.02862">
        <ele>212</ele>
        <time>2010-01-01T01:13:46Z</time>
      </trkpt>
      <trkpt lat="47.67142" lon="6.02819">
        <ele>210</ele>
        <time>2010-01-01T01:14:01Z</time>
      </trkpt>
      <trkpt lat="47.67116" lon="6.02787">
        <ele>210</ele>
        <time>2010-01-01T01:14:14Z</time>
      </trkpt>
      <trkpt lat="47.67084" lon="6.02744">
        <ele>211</ele>
        <time>2010-01-01T01:14:31Z</time>
      </trkpt>
      <trkpt lat="47.67063" lon="6.02721">
        <ele>211</ele>
        <time>2010-01-01T01:14:42Z</time>
      </trkpt>
      <trkpt lat="47.67039" lon="6.02691">
        <ele>210</ele>
        <time>2010-01-01T01:14:54Z</time>
      </trkpt>
      <trkpt lat="47.67021" lon="6.02672">
        <ele>209</ele>
        <time>2010-01-01T01:15:03Z</time>
      </trkpt>
      <trkpt lat="47.67011" lon="6.02655">
        <ele>209</ele>
        <time>2010-01-01T01:15:09Z</time>
      </trkpt>
      <trkpt lat="47.66958" lon="6.02566">
        <ele>209</ele>
        <time>2010-01-01T01:15:41Z</time>
      </trkpt>
      <trkpt lat="47.6691" lon="6.02483">
        <ele>207</ele>
        <time>2010-01-01T01:16:11Z</time>
      </trkpt>
      <trkpt lat="47.66878" lon="6.02426">
        <ele>208</ele>
        <time>2010-01-01T01:16:31Z</time>
      </trkpt>
      <trkpt lat="47.66867" lon="6.02406">
        <ele>208</ele>
        <time>2010-01-01T01:16:38Z</time>
      </trkpt>
      <trkpt lat="47.66858" lon="6.02387">
        <ele>208</ele>
        <time>2010-01-01T01:16:44Z</time>
      </trkpt>
      <trkpt lat="47.66844" lon="6.02361">
        <ele>208</ele>
        <time>2010-01-01T01:16:53Z</time>
      </trkpt>
      <trkpt lat="47.6683" lon="6.0233">
        <ele>208</ele>
        <time>2010-01-01T01:17:03Z</time>
      </trkpt>
      <trkpt lat="47.66824" lon="6.02314">
        <ele>208</ele>
        <time>2010-01-01T01:17:08Z</time>
      </trkpt>
      <trkpt lat="47.66821" lon="6.02305">
        <ele>208</ele>
        <time>2010-01-01T01:17:11Z</time>
      </trkpt>
      <trkpt lat="47.66809" lon="6.02271">
        <ele>208</ele>
        <time>2010-01-01T01:17:21Z</time>
      </trkpt>
      <trkpt lat="47.66801" lon="6.02245">
        <ele>208</ele>
        <time>2010-01-01T01:17:29Z</time>
      </trkpt>
      <trkpt lat="47.66792" lon="6.0221">
        <ele>209</ele>
        <time>2010-01-01T01:17:39Z</time>
      </trkpt>
      <trkpt lat="47.66777" lon="6.02149">
        <ele>210</ele>
        <time>2010-01-01T01:17:56Z</time>
      </trkpt>
      <trkpt lat="47.66762" lon="6.02086">
        <ele>209</ele>
        <time>2010-01-01T01:18:14Z</time>
      </trkpt>
      <trkpt lat="47.66754" lon="6.02056">
        <ele>208</ele>
        <time>2010-01-01T01:18:23Z</time>
      </trkpt>
      <trkpt lat="47.66748" lon="6.02031">
        <ele>207</ele>
        <time>2010-01-01T01:18:30Z</time>
      </trkpt>
      <trkpt lat="47.66739" lon="6.01996">
        <ele>206</ele>
        <time>2010-01-01T01:18:40Z</time>
      </trkpt>
      <trkpt lat="47.66735" lon="6.01979">
        <ele>206</ele>
        <time>2010-01-01T01:18:45Z</time>
      </trkpt>
      <trkpt lat="47.6673" lon="6.01963">
        <ele>206</ele>
        <time>2010-01-01T01:18:50Z</time>
      </trkpt>
      <trkpt lat="47.6673" lon="6.0196">
        <ele>206</ele>
        <time>2010-01-01T01:18:51Z</time>
      </trkpt>
      <trkpt lat="47.66723" lon="6.01942">
        <ele>205</ele>
        <time>2010-01-01T01:18:56Z</time>
      </trkpt>
      <trkpt lat="47.66718" lon="6.01926">
        <ele>205</ele>
        <time>2010-01-01T01:19:01Z</time>
      </trkpt>
      <trkpt lat="47.66708" lon="6.01908">
        <ele>206</ele>
        <time>2010-01-01T01:19:07Z</time>
      </trkpt>
      <trkpt lat="47.66694" lon="6.0188">
        <ele>205</ele>
        <time>2010-01-01T01:19:17Z</time>
      </trkpt>
      <trkpt lat="47.66674" lon="6.01846">
        <ele>207</ele>
        <time>2010-01-01T01:19:29Z</time>
      </trkpt>
      <trkpt lat="47.66656" lon="6.01812">
        <ele>208</ele>
        <time>2010-01-01T01:19:41Z</time>
      </trkpt>
      <trkpt lat="47.66645" lon="6.01789">
        <ele>208</ele>
        <time>2010-01-01T01:19:48Z</time>
      </trkpt>
      <trkpt lat="47.66629" lon="6.01764">
        <ele>207</ele>
        <time>2010-01-01T01:19:57Z</time>
      </trkpt>
      <trkpt lat="47.66611" lon="6.0174">
        <ele>207</ele>
        <time>2010-01-01T01:20:07Z</time>
      </trkpt>
      <trkpt lat="47.666" lon="6.01728">
        <ele>207</ele>
        <time>2010-01-01T01:20:13Z</time>
      </trkpt>
      <trkpt lat="47.66592" lon="6.01719">
        <ele>207</ele>
        <time>2010-01-01T01:20:16Z</time>
      </trkpt>
      <trkpt lat="47.66567" lon="6.01692">
        <ele>209</ele>
        <time>2010-01-01T01:20:29Z</time>
      </trkpt>
      <trkpt lat="47.66532" lon="6.01658">
        <ele>208</ele>
        <time>2010-01-01T01:20:46Z</time>
      </trkpt>
      <trkpt lat="47.66506" lon="6.01631">
        <ele>207</ele>
        <time>2010-01-01T01:20:58Z</time>
      </trkpt>
      <trkpt lat="47.66473" lon="6.01602">
        <ele>207</ele>
        <time>2010-01-01T01:21:14Z</time>
      </trkpt>
      <trkpt lat="47.66443" lon="6.01579">
        <ele>205</ele>
        <time>2010-01-01T01:21:27Z</time>
      </trkpt>
      <trkpt lat="47.66412" lon="6.01556">
        <ele>205</ele>
        <time>2010-01-01T01:21:41Z</time>
      </trkpt>
      <trkpt lat="47.66389" lon="6.01541">
        <ele>205</ele>
        <time>2010-01-01T01:21:51Z</time>
      </trkpt>
      <trkpt lat="47.66376" lon="6.01534">
        <ele>206</ele>
        <time>2010-01-01T01:21:57Z</time>
      </trkpt>
      <trkpt lat="47.66364" lon="6.01527">
        <ele>206</ele>
        <time>2010-01-01T01:22:02Z</time>
      </trkpt>
      <trkpt lat="47.66353" lon="6.01522">
        <ele>206</ele>
        <time>2010-01-01T01:22:06Z</time>
      </trkpt>
      <trkpt lat="47.66342" lon="6.01514">
        <ele>206</ele>
        <time>2010-01-01T01:22:11Z</time>
      </trkpt>
      <trkpt lat="47.66327" lon="6.01508">
        <ele>206</ele>
        <time>2010-01-01T01:22:17Z</time>
      </trkpt>
      <trkpt lat="47.66312" lon="6.01499">
        <ele>206</ele>
        <time>2010-01-01T01:22:24Z</time>
      </trkpt>
      <trkpt lat="47.66297" lon="6.01494">
        <ele>206</ele>
        <time>2010-01-01T01:22:30Z</time>
      </trkpt>
      <trkpt lat="47.66285" lon="6.0149">
        <ele>206</ele>
        <time>2010-01-01T01:22:35Z</time>
      </trkpt>
      <trkpt lat="47.66252" lon="6.0148">
        <ele>206</ele>
        <time>2010-01-01T01:22:48Z</time>
      </trkpt>
      <trkpt lat="47.66229" lon="6.01475">
        <ele>206</ele>
        <time>2010-01-01T01:22:58Z</time>
      </trkpt>
      <trkpt lat="47.66212" lon="6.0147">
        <ele>206</ele>
        <time>2010-01-01T01:23:05Z</time>
      </trkpt>
      <trkpt lat="47.66197" lon="6.01469">
        <ele>206</ele>
        <time>2010-01-01T01:23:11Z</time>
      </trkpt>
      <trkpt lat="47.66192" lon="6.01469">
        <ele>206</ele>
        <time>2010-01-01T01:23:13Z</time>
      </trkpt>
      <trkpt lat="47.66185" lon="6.01469">
        <ele>207</ele>
        <time>2010-01-01T01:23:16Z</time>
      </trkpt>
      <trkpt lat="47.66164" lon="6.0147">
        <ele>208</ele>
        <time>2010-01-01T01:23:24Z</time>
      </trkpt>
      <trkpt lat="47.66147" lon="6.01474">
        <ele>209</ele>
        <time>2010-01-01T01:23:31Z</time>
      </trkpt>
      <trkpt lat="47.66114" lon="6.01477">
        <ele>209</ele>
        <time>2010-01-01T01:23:44Z</time>
      </trkpt>
      <trkpt lat="47.66108" lon="6.01478">
        <ele>209</ele>
        <time>2010-01-01T01:23:46Z</time>
      </trkpt>
      <trkpt lat="47.66085" lon="6.01481">
        <ele>208</ele>
        <time>2010-01-01T01:23:56Z</time>
      </trkpt>
      <trkpt lat="47.66055" lon="6.01486">
        <ele>205</ele>
        <time>2010-01-01T01:24:08Z</time>
      </trkpt>
      <trkpt lat="47.66031" lon="6.01493">
        <ele>206</ele>
        <time>2010-01-01T01:24:18Z</time>
      </trkpt>
      <trkpt lat="47.66008" lon="6.01499">
        <ele>208</ele>
        <time>2010-01-01T01:24:27Z</time>
      </trkpt>
      <trkpt lat="47.65984" lon="6.01507">
        <ele>209</ele>
        <time>2010-01-01T01:24:37Z</time>
      </trkpt>
      <trkpt lat="47.65966" lon="6.01514">
        <ele>210</ele>
        <time>2010-01-01T01:24:44Z</time>
      </trkpt>
      <trkpt lat="47.65951" lon="6.0152">
        <ele>211</ele>
        <time>2010-01-01T01:24:51Z</time>
      </trkpt>
      <trkpt lat="47.65928" lon="6.0153">
        <ele>212</ele>
        <time>2010-01-01T01:25:00Z</time>
      </trkpt>
      <trkpt lat="47.65897" lon="6.01545">
        <ele>214</ele>
        <time>2010-01-01T01:25:13Z</time>
      </trkpt>
      <trkpt lat="47.65877" lon="6.01555">
        <ele>216</ele>
        <time>2010-01-01T01:25:22Z</time>
      </trkpt>
      <trkpt lat="47.65852" lon="6.01567">
        <ele>217</ele>
        <time>2010-01-01T01:25:32Z</time>
      </trkpt>
      <trkpt lat="47.65851" lon="6.01568">
        <ele>217</ele>
        <time>2010-01-01T01:25:33Z</time>
      </trkpt>
      <trkpt lat="47.65839" lon="6.01577">
        <ele>216</ele>
        <time>2010-01-01T01:25:38Z</time>
      </trkpt>
      <trkpt lat="47.65822" lon="6.01587">
        <ele>215</ele>
        <time>2010-01-01T01:25:45Z</time>
      </trkpt>
      <trkpt lat="47.65805" lon="6.01599">
        <ele>214</ele>
        <time>2010-01-01T01:25:53Z</time>
      </trkpt>
      <trkpt lat="47.65794" lon="6.01608">
        <ele>213</ele>
        <time>2010-01-01T01:25:58Z</time>
      </trkpt>
      <trkpt lat="47.65787" lon="6.01616">
        <ele>213</ele>
        <time>2010-01-01T01:26:02Z</time>
      </trkpt>
      <trkpt lat="47.65781" lon="6.01627">
        <ele>212</ele>
        <time>2010-01-01T01:26:05Z</time>
      </trkpt>
      <trkpt lat="47.65773" lon="6.01639">
        <ele>212</ele>
        <time>2010-01-01T01:26:10Z</time>
      </trkpt>
      <trkpt lat="47.65761" lon="6.0165">
        <ele>211</ele>
        <time>2010-01-01T01:26:15Z</time>
      </trkpt>
      <trkpt lat="47.65745" lon="6.0166">
        <ele>210</ele>
        <time>2010-01-01T01:26:22Z</time>
      </trkpt>
      <trkpt lat="47.65736" lon="6.01667">
        <ele>210</ele>
        <time>2010-01-01T01:26:26Z</time>
      </trkpt>
      <trkpt lat="47.65721" lon="6.01675">
        <ele>209</ele>
        <time>2010-01-01T01:26:33Z</time>
      </trkpt>
      <trkpt lat="47.65704" lon="6.01685">
        <ele>207</ele>
        <time>2010-01-01T01:26:40Z</time>
      </trkpt>
      <trkpt lat="47.65691" lon="6.01692">
        <ele>207</ele>
        <time>2010-01-01T01:26:46Z</time>
      </trkpt>
      <trkpt lat="47.65682" lon="6.01698">
        <ele>206</ele>
        <time>2010-01-01T01:26:49Z</time>
      </trkpt>
      <trkpt lat="47.65678" lon="6.01699">
        <ele>206</ele>
        <time>2010-01-01T01:26:51Z</time>
      </trkpt>
      <trkpt lat="47.65674" lon="6.01698">
        <ele>206</ele>
        <time>2010-01-01T01:26:53Z</time>
      </trkpt>
      <trkpt lat="47.65671" lon="6.01694">
        <ele>207</ele>
        <time>2010-01-01T01:26:55Z</time>
      </trkpt>
      <trkpt lat="47.65667" lon="6.01687">
        <ele>207</ele>
        <time>2010-01-01T01:26:57Z</time>
      </trkpt>
      <trkpt lat="47.65665" lon="6.01681">
        <ele>207</ele>
        <time>2010-01-01T01:26:59Z</time>
      </trkpt>
      <trkpt lat="47.65663" lon="6.01673">
        <ele>207</ele>
        <time>2010-01-01T01:27:01Z</time>
      </trkpt>
      <trkpt lat="47.65662" lon="6.01668">
        <ele>207</ele>
        <time>2010-01-01T01:27:02Z</time>
      </trkpt>
      <trkpt lat="47.65661" lon="6.01668">
        <ele>207</ele>
        <time>2010-01-01T01:27:03Z</time>
      </trkpt>
      <trkpt lat="47.65658" lon="6.01671">
        <ele>207</ele>
        <time>2010-01-01T01:27:04Z</time>
      </trkpt>
      <trkpt lat="47.65655" lon="6.01676">
        <ele>207</ele>
        <time>2010-01-01T01:27:06Z</time>
      </trkpt>
      <trkpt lat="47.65649" lon="6.01682">
        <ele>207</ele>
        <time>2010-01-01T01:27:09Z</time>
      </trkpt>
      <trkpt lat="47.65644" lon="6.01687">
        <ele>207</ele>
        <time>2010-01-01T01:27:11Z</time>
      </trkpt>
      <trkpt lat="47.65635" lon="6.01695">
        <ele>207</ele>
        <time>2010-01-01T01:27:15Z</time>
      </trkpt>
      <trkpt lat="47.65627" lon="6.01702">
        <ele>207</ele>
        <time>2010-01-01T01:27:19Z</time>
      </trkpt>
      <trkpt lat="47.65621" lon="6.01709">
        <ele>206</ele>
        <time>2010-01-01T01:27:22Z</time>
      </trkpt>
      <trkpt lat="47.65614" lon="6.01716">
        <ele>206</ele>
        <time>2010-01-01T01:27:26Z</time>
      </trkpt>
      <trkpt lat="47.6561" lon="6.01725">
        <ele>206</ele>
        <time>2010-01-01T01:27:29Z</time>
      </trkpt>
      <trkpt lat="47.65604" lon="6.01734">
        <ele>206</ele>
        <time>2010-01-01T01:27:32Z</time>
      </trkpt>
      <trkpt lat="47.65598" lon="6.01746">
        <ele>206</ele>
        <time>2010-01-01T01:27:36Z</time>
      </trkpt>
      <trkpt lat="47.6559" lon="6.01759">
        <ele>206</ele>
        <time>2010-01-01T01:27:41Z</time>
      </trkpt>
      <trkpt lat="47.65583" lon="6.01771">
        <ele>206</ele>
        <time>2010-01-01T01:27:45Z</time>
      </trkpt>
      <trkpt lat="47.65569" lon="6.01794">
        <ele>206</ele>
        <time>2010-01-01T01:27:54Z</time>
      </trkpt>
      <trkpt lat="47.65559" lon="6.01794">
        <ele>206</ele>
        <time>2010-01-01T01:27:57Z</time>
      </trkpt>
      <trkpt lat="47.65553" lon="6.01798">
        <ele>206</ele>
        <time>2010-01-01T01:28:00Z</time>
      </trkpt>
      <trkpt lat="47.65525" lon="6.01817">
        <ele>205</ele>
        <time>2010-01-01T01:28:13Z</time>
      </trkpt>
      <trkpt lat="47.65517" lon="6.01822">
        <ele>205</ele>
        <time>2010-01-01T01:28:16Z</time>
      </trkpt>
      <trkpt lat="47.65511" lon="6.01832">
        <ele>205</ele>
        <time>2010-01-01T01:28:20Z</time>
      </trkpt>
      <trkpt lat="47.65504" lon="6.01851">
        <ele>205</ele>
        <time>2010-01-01T01:28:25Z</time>
      </trkpt>
      <trkpt lat="47.655" lon="6.01867">
        <ele>206</ele>
        <time>2010-01-01T01:28:30Z</time>
      </trkpt>
      <trkpt lat="47.65497" lon="6.01873">
        <ele>206</ele>
        <time>2010-01-01T01:28:32Z</time>
      </trkpt>
      <trkpt lat="47.6547" lon="6.01896">
        <ele>208</ele>
        <time>2010-01-01T01:28:44Z</time>
      </trkpt>
      <trkpt lat="47.65454" lon="6.01908">
        <ele>208</ele>
        <time>2010-01-01T01:28:52Z</time>
      </trkpt>
      <trkpt lat="47.6547" lon="6.01896">
        <ele>208</ele>
        <time>2010-01-01T01:28:59Z</time>
      </trkpt>
      <trkpt lat="47.65497" lon="6.01873">
        <ele>206</ele>
        <time>2010-01-01T01:29:11Z</time>
      </trkpt>
      <trkpt lat="47.655" lon="6.01867">
        <ele>206</ele>
        <time>2010-01-01T01:29:13Z</time>
      </trkpt>
      <trkpt lat="47.65504" lon="6.01851">
        <ele>205</ele>
        <time>2010-01-01T01:29:18Z</time>
      </trkpt>
      <trkpt lat="47.65511" lon="6.01832">
        <ele>205</ele>
        <time>2010-01-01T01:29:24Z</time>
      </trkpt>
      <trkpt lat="47.65517" lon="6.01822">
        <ele>205</ele>
        <time>2010-01-01T01:29:27Z</time>
      </trkpt>
      <trkpt lat="47.65525" lon="6.01817">
        <ele>205</ele>
        <time>2010-01-01T01:29:31Z</time>
      </trkpt>
      <trkpt lat="47.65553" lon="6.01798">
        <ele>206</ele>
        <time>2010-01-01T01:29:43Z</time>
      </trkpt>
      <trkpt lat="47.65559" lon="6.01794">
        <ele>206</ele>
        <time>2010-01-01T01:29:46Z</time>
      </trkpt>
      <trkpt lat="47.65569" lon="6.01794">
        <ele>206</ele>
        <time>2010-01-01T01:29:50Z</time>
      </trkpt>
      <trkpt lat="47.65563" lon="6.01801">
        <ele>206</ele>
        <time>2010-01-01T01:29:52Z</time>
      </trkpt>
      <trkpt lat="47.65557" lon="6.01806">
        <ele>205</ele>
        <time>2010-01-01T01:29:55Z</time>
      </trkpt>
      <trkpt lat="47.6555" lon="6.01812">
        <ele>205</ele>
        <time>2010-01-01T01:29:58Z</time>
      </trkpt>
      <trkpt lat="47.65537" lon="6.01821">
        <ele>205</ele>
        <time>2010-01-01T01:30:04Z</time>
      </trkpt>
      <trkpt lat="47.65528" lon="6.01829">
        <ele>205</ele>
        <time>2010-01-01T01:30:08Z</time>
      </trkpt>
      <trkpt lat="47.65522" lon="6.01837">
        <ele>205</ele>
        <time>2010-01-01T01:30:12Z</time>
      </trkpt>
      <trkpt lat="47.65518" lon="6.01845">
        <ele>205</ele>
        <time>2010-01-01T01:30:14Z</time>
      </trkpt>
      <trkpt lat="47.65516" lon="6.01852">
        <ele>205</ele>
        <time>2010-01-01T01:30:16Z</time>
      </trkpt>
      <trkpt lat="47.65516" lon="6.0186">
        <ele>204</ele>
        <time>2010-01-01T01:30:18Z</time>
      </trkpt>
      <trkpt lat="47.65516" lon="6.01867">
        <ele>204</ele>
        <time>2010-01-01T01:30:20Z</time>
      </trkpt>
      <trkpt lat="47.65517" lon="6.01875">
        <ele>204</ele>
        <time>2010-01-01T01:30:23Z</time>
      </trkpt>
      <trkpt lat="47.65519" lon="6.01879">
        <ele>204</ele>
        <time>2010-01-01T01:30:24Z</time>
      </trkpt>
      <trkpt lat="47.65503" lon="6.01892">
        <ele>205</ele>
        <time>2010-01-01T01:30:31Z</time>
      </trkpt>
      <trkpt lat="47.65488" lon="6.01905">
        <ele>206</ele>
        <time>2010-01-01T01:30:38Z</time>
      </trkpt>
      <trkpt lat="47.65475" lon="6.01919">
        <ele>207</ele>
        <time>2010-01-01T01:30:45Z</time>
      </trkpt>
      <trkpt lat="47.65461" lon="6.01932">
        <ele>208</ele>
        <time>2010-01-01T01:30:51Z</time>
      </trkpt>
      <trkpt lat="47.65369" lon="6.02007">
        <ele>205</ele>
        <time>2010-01-01T01:31:33Z</time>
      </trkpt>
      <trkpt lat="47.65345" lon="6.02023">
        <ele>205</ele>
        <time>2010-01-01T01:31:44Z</time>
      </trkpt>
      <trkpt lat="47.65327" lon="6.02031">
        <ele>205</ele>
        <time>2010-01-01T01:31:51Z</time>
      </trkpt>
      <trkpt lat="47.65307" lon="6.0204">
        <ele>205</ele>
        <time>2010-01-01T01:32:00Z</time>
      </trkpt>
      <trkpt lat="47.65284" lon="6.02048">
        <ele>205</ele>
        <time>2010-01-01T01:32:09Z</time>
      </trkpt>
      <trkpt lat="47.65268" lon="6.02052">
        <ele>206</ele>
        <time>2010-01-01T01:32:16Z</time>
      </trkpt>
      <trkpt lat="47.65251" lon="6.02055">
        <ele>206</ele>
        <time>2010-01-01T01:32:23Z</time>
      </trkpt>
      <trkpt lat="47.65225" lon="6.02054">
        <ele>206</ele>
        <time>2010-01-01T01:32:33Z</time>
      </trkpt>
      <trkpt lat="47.6519" lon="6.02052">
        <ele>204</ele>
        <time>2010-01-01T01:32:47Z</time>
      </trkpt>
      <trkpt lat="47.65169" lon="6.02045">
        <ele>204</ele>
        <time>2010-01-01T01:32:56Z</time>
      </trkpt>
      <trkpt lat="47.65146" lon="6.02039">
        <ele>204</ele>
        <time>2010-01-01T01:33:05Z</time>
      </trkpt>
      <trkpt lat="47.65115" lon="6.02027">
        <ele>205</ele>
        <time>2010-01-01T01:33:18Z</time>
      </trkpt>
      <trkpt lat="47.65092" lon="6.02021">
        <ele>206</ele>
        <time>2010-01-01T01:33:27Z</time>
      </trkpt>
      <trkpt lat="47.65075" lon="6.02018">
        <ele>205</ele>
        <time>2010-01-01T01:33:34Z</time>
      </trkpt>
      <trkpt lat="47.65074" lon="6.02018">
        <ele>205</ele>
        <time>2010-01-01T01:33:34Z</time>
      </trkpt>
      <trkpt lat="47.65026" lon="6.02">
        <ele>205</ele>
        <time>2010-01-01T01:33:54Z</time>
      </trkpt>
      <trkpt lat="47.65003" lon="6.01992">
        <ele>206</ele>
        <time>2010-01-01T01:34:04Z</time>
      </trkpt>
      <trkpt lat="47.64973" lon="6.0198">
        <ele>206</ele>
        <time>2010-01-01T01:34:16Z</time>
      </trkpt>
      <trkpt lat="47.64972" lon="6.0198">
        <ele>206</ele>
        <time>2010-01-01T01:34:16Z</time>
      </trkpt>
      <trkpt lat="47.64954" lon="6.01972">
        <ele>205</ele>
        <time>2010-01-01T01:34:24Z</time>
      </trkpt>
      <trkpt lat="47.64945" lon="6.01968">
        <ele>205</ele>
        <time>2010-01-01T01:34:28Z</time>
      </trkpt>
      <trkpt lat="47.64936" lon="6.01959">
        <ele>205</ele>
        <time>2010-01-01T01:34:32Z</time>
      </trkpt>
      <trkpt lat="47.64929" lon="6.0195">
        <ele>205</ele>
        <time>2010-01-01T01:34:36Z</time>
      </trkpt>
      <trkpt lat="47.64923" lon="6.01938">
        <ele>205</ele>
        <time>2010-01-01T01:34:40Z</time>
      </trkpt>
      <trkpt lat="47.6491" lon="6.01908">
        <ele>206</ele>
        <time>2010-01-01T01:34:49Z</time>
      </trkpt>
      <trkpt lat="47.64897" lon="6.01876">
        <ele>207</ele>
        <time>2010-01-01T01:35:00Z</time>
      </trkpt>
      <trkpt lat="47.64884" lon="6.01838">
        <ele>205</ele>
        <time>2010-01-01T01:35:11Z</time>
      </trkpt>
      <trkpt lat="47.64883" lon="6.01835">
        <ele>205</ele>
        <time>2010-01-01T01:35:12Z</time>
      </trkpt>
      <trkpt lat="47.64874" lon="6.01809">
        <ele>204</ele>
        <time>2010-01-01T01:35:20Z</time>
      </trkpt>
      <trkpt lat="47.64855" lon="6.01769">
        <ele>204</ele>
        <time>2010-01-01T01:35:33Z</time>
      </trkpt>
      <trkpt lat="47.64847" lon="6.01748">
        <ele>205</ele>
        <time>2010-01-01T01:35:40Z</time>
      </trkpt>
      <trkpt lat="47.64835" lon="6.0171">
        <ele>204</ele>
        <time>2010-01-01T01:35:51Z</time>
      </trkpt>
      <trkpt lat="47.64828" lon="6.01686">
        <ele>204</ele>
        <time>2010-01-01T01:35:58Z</time>
      </trkpt>
      <trkpt lat="47.64825" lon="6.01672">
        <ele>204</ele>
        <time>2010-01-01T01:36:02Z</time>
      </trkpt>
      <trkpt lat="47.64816" lon="6.01654">
        <ele>205</ele>
        <time>2010-01-01T01:36:08Z</time>
      </trkpt>
      <trkpt lat="47.64804" lon="6.01626">
        <ele>205</ele>
        <time>2010-01-01T01:36:17Z</time>
      </trkpt>
      <trkpt lat="47.64794" lon="6.01609">
        <ele>205</ele>
        <time>2010-01-01T01:36:23Z</time>
      </trkpt>
      <trkpt lat="47.6478" lon="6.01583">
        <ele>205</ele>
        <time>2010-01-01T01:36:32Z</time>
      </trkpt>
      <trkpt lat="47.64773" lon="6.01567">
        <ele>207</ele>
        <time>2010-01-01T01:36:37Z</time>
      </trkpt>
      <trkpt lat="47.64767" lon="6.01552">
        <ele>207</ele>
        <time>2010-01-01T01:36:42Z</time>
      </trkpt>
      <trkpt lat="47.64761" lon="6.01534">
        <ele>209</ele>
        <time>2010-01-01T01:36:47Z</time>
      </trkpt>
      <trkpt lat="47.64748" lon="6.01486">
        <ele>210</ele>
        <time>2010-01-01T01:37:01Z</time>
      </trkpt>
      <trkpt lat="47.64739" lon="6.01455">
        <ele>210</ele>
        <time>2010-01-01T01:37:10Z</time>
      </trkpt>
      <trkpt lat="47.64733" lon="6.01419">
        <ele>206</ele>
        <time>2010-01-01T01:37:20Z</time>
      </trkpt>
      <trkpt lat="47.64728" lon="6.01392">
        <ele>206</ele>
        <time>2010-01-01T01:37:28Z</time>
      </trkpt>
      <trkpt lat="47.64721" lon="6.01359">
        <ele>207</ele>
        <time>2010-01-01T01:37:37Z</time>
      </trkpt>
      <trkpt lat="47.64714" lon="6.01332">
        <ele>206</ele>
        <time>2010-01-01T01:37:45Z</time>
      </trkpt>
      <trkpt lat="47.64706" lon="6.01286">
        <ele>206</ele>
        <time>2010-01-01T01:37:58Z</time>
      </trkpt>
      <trkpt lat="47.64701" lon="6.01243">
        <ele>207</ele>
        <time>2010-01-01T01:38:10Z</time>
      </trkpt>
      <trkpt lat="47.64692" lon="6.01174">
        <ele>204</ele>
        <time>2010-01-01T01:38:28Z</time>
      </trkpt>
      <trkpt lat="47.64686" lon="6.01123">
        <ele>204</ele>
        <time>2010-01-01T01:38:43Z</time>
      </trkpt>
      <trkpt lat="47.64679" lon="6.01066">
        <ele>208</ele>
        <time>2010-01-01T01:38:58Z</time>
      </trkpt>
      <trkpt lat="47.64675" lon="6.01012">
        <ele>208</ele>
        <time>2010-01-01T01:39:13Z</time>
      </trkpt>
      <trkpt lat="47.64674" lon="6.01">
        <ele>208</ele>
        <time>2010-01-01T01:39:16Z</time>
      </trkpt>
      <trkpt lat="47.64668" lon="6.00931">
        <ele>206</ele>
        <time>2010-01-01T01:39:35Z</time>
      </trkpt>
      <trkpt lat="47.6467" lon="6.00918">
        <ele>205</ele>
        <time>2010-01-01T01:39:38Z</time>
      </trkpt>
      <trkpt lat="47.64675" lon="6.00905">
        <ele>205</ele>
        <time>2010-01-01T01:39:42Z</time>
      </trkpt>
      <trkpt lat="47.64683" lon="6.00885">
        <ele>204</ele>
        <time>2010-01-01T01:39:49Z</time>
      </trkpt>
      <trkpt lat="47.64685" lon="6.00873">
        <ele>204</ele>
        <time>2010-01-01T01:39:52Z</time>
      </trkpt>
      <trkpt lat="47.64685" lon="6.00853">
        <ele>204</ele>
        <time>2010-01-01T01:39:57Z</time>
      </trkpt>
      <trkpt lat="47.64685" lon="6.00826">
        <ele>204</ele>
        <time>2010-01-01T01:40:05Z</time>
      </trkpt>
      <trkpt lat="47.64685" lon="6.00778">
        <ele>204</ele>
        <time>2010-01-01T01:40:18Z</time>
      </trkpt>
      <trkpt lat="47.64685" lon="6.00754">
        <ele>205</ele>
        <time>2010-01-01T01:40:24Z</time>
      </trkpt>
      <trkpt lat="47.64688" lon="6.00732">
        <ele>205</ele>
        <time>2010-01-01T01:40:30Z</time>
      </trkpt>
      <trkpt lat="47.64698" lon="6.00642">
        <ele>205</ele>
        <time>2010-01-01T01:40:55Z</time>
      </trkpt>
      <trkpt lat="47.64698" lon="6.00624">
        <ele>205</ele>
        <time>2010-01-01T01:41:00Z</time>
      </trkpt>
      <trkpt lat="47.64699" lon="6.00592">
        <ele>206</ele>
        <time>2010-01-01T01:41:08Z</time>
      </trkpt>
      <trkpt lat="47.64699" lon="6.00583">
        <ele>206</ele>
        <time>2010-01-01T01:41:11Z</time>
      </trkpt>
      <trkpt lat="47.64696" lon="6.00555">
        <ele>206</ele>
        <time>2010-01-01T01:41:18Z</time>
      </trkpt>
      <trkpt lat="47.64695" lon="6.00531">
        <ele>206</ele>
        <time>2010-01-01T01:41:25Z</time>
      </trkpt>
      <trkpt lat="47.64694" lon="6.00515">
        <ele>207</ele>
        <time>2010-01-01T01:41:29Z</time>
      </trkpt>
      <trkpt lat="47.64693" lon="6.00509">
        <ele>207</ele>
        <time>2010-01-01T01:41:31Z</time>
      </trkpt>
      <trkpt lat="47.64693" lon="6.00494">
        <ele>208</ele>
        <time>2010-01-01T01:41:35Z</time>
      </trkpt>
      <trkpt lat="47.64692" lon="6.00474">
        <ele>208</ele>
        <time>2010-01-01T01:41:40Z</time>
      </trkpt>
      <trkpt lat="47.64692" lon="6.00453">
        <ele>208</ele>
        <time>2010-01-01T01:41:46Z</time>
      </trkpt>
      <trkpt lat="47.64691" lon="6.00419">
        <ele>207</ele>
        <time>2010-01-01T01:41:55Z</time>
      </trkpt>
      <trkpt lat="47.6469" lon="6.00358">
        <ele>205</ele>
        <time>2010-01-01T01:42:12Z</time>
      </trkpt>
      <trkpt lat="47.64689" lon="6.00336">
        <ele>205</ele>
        <time>2010-01-01T01:42:17Z</time>
      </trkpt>
      <trkpt lat="47.64687" lon="6.00309">
        <ele>205</ele>
        <time>2010-01-01T01:42:25Z</time>
      </trkpt>
      <trkpt lat="47.64683" lon="6.00264">
        <ele>205</ele>
        <time>2010-01-01T01:42:37Z</time>
      </trkpt>
      <trkpt lat="47.6468" lon="6.00249">
        <ele>205</ele>
        <time>2010-01-01T01:42:41Z</time>
      </trkpt>
      <trkpt lat="47.64676" lon="6.00229">
        <ele>205</ele>
        <time>2010-01-01T01:42:47Z</time>
      </trkpt>
      <trkpt lat="47.64676" lon="6.00227">
        <ele>205</ele>
        <time>2010-01-01T01:42:47Z</time>
      </trkpt>
      <trkpt lat="47.64674" lon="6.00211">
        <ele>205</ele>
        <time>2010-01-01T01:42:52Z</time>
      </trkpt>
      <trkpt lat="47.64673" lon="6.00191">
        <ele>205</ele>
        <time>2010-01-01T01:42:57Z</time>
      </trkpt>
      <trkpt lat="47.64673" lon="6.00169">
        <ele>206</ele>
        <time>2010-01-01T01:43:03Z</time>
      </trkpt>
      <trkpt lat="47.64674" lon="6.00144">
        <ele>206</ele>
        <time>2010-01-01T01:43:10Z</time>
      </trkpt>
      <trkpt lat="47.64677" lon="6.00131">
        <ele>206</ele>
        <time>2010-01-01T01:43:13Z</time>
      </trkpt>
      <trkpt lat="47.6468" lon="6.00115">
        <ele>206</ele>
        <time>2010-01-01T01:43:18Z</time>
      </trkpt>
      <trkpt lat="47.64684" lon="6.00098">
        <ele>206</ele>
        <time>2010-01-01T01:43:23Z</time>
      </trkpt>
      <trkpt lat="47.64688" lon="6.00079">
        <ele>205</ele>
        <time>2010-01-01T01:43:28Z</time>
      </trkpt>
      <trkpt lat="47.64693" lon="6.00057">
        <ele>205</ele>
        <time>2010-01-01T01:43:34Z</time>
      </trkpt>
      <trkpt lat="47.64698" lon="6.00035">
        <ele>204</ele>
        <time>2010-01-01T01:43:41Z</time>
      </trkpt>
      <trkpt lat="47.64704" lon="6.00008">
        <ele>205</ele>
        <time>2010-01-01T01:43:48Z</time>
      </trkpt>
      <trkpt lat="47.6471" lon="5.99988">
        <ele>205</ele>
        <time>2010-01-01T01:43:55Z</time>
      </trkpt>
      <trkpt lat="47.64718" lon="5.9996">
        <ele>205</ele>
        <time>2010-01-01T01:44:03Z</time>
      </trkpt>
      <trkpt lat="47.64725" lon="5.99939">
        <ele>205</ele>
        <time>2010-01-01T01:44:09Z</time>
      </trkpt>
      <trkpt lat="47.64732" lon="5.99919">
        <ele>206</ele>
        <time>2010-01-01T01:44:15Z</time>
      </trkpt>
      <trkpt lat="47.64739" lon="5.99901">
        <ele>206</ele>
        <time>2010-01-01T01:44:21Z</time>
      </trkpt>
      <trkpt lat="47.64749" lon="5.9988">
        <ele>205</ele>
        <time>2010-01-01T01:44:27Z</time>
      </trkpt>
      <trkpt lat="47.64758" lon="5.99862">
        <ele>204</ele>
        <time>2010-01-01T01:44:33Z</time>
      </trkpt>
      <trkpt lat="47.64767" lon="5.99848">
        <ele>205</ele>
        <time>2010-01-01T01:44:39Z</time>
      </trkpt>
      <trkpt lat="47.64788" lon="5.99819">
        <ele>207</ele>
        <time>2010-01-01T01:44:50Z</time>
      </trkpt>
      <trkpt lat="47.64802" lon="5.998">
        <ele>208</ele>
        <time>2010-01-01T01:44:58Z</time>
      </trkpt>
      <trkpt lat="47.64828" lon="5.99766">
        <ele>207</ele>
        <time>2010-01-01T01:45:12Z</time>
      </trkpt>
      <trkpt lat="47.64846" lon="5.99744">
        <ele>206</ele>
        <time>2010-01-01T01:45:21Z</time>
      </trkpt>
      <trkpt lat="47.64863" lon="5.99725">
        <ele>206</ele>
        <time>2010-01-01T01:45:30Z</time>
      </trkpt>
      <trkpt lat="47.64945" lon="5.99635">
        <ele>206</ele>
        <time>2010-01-01T01:46:11Z</time>
      </trkpt>
      <trkpt lat="47.64965" lon="5.99612">
        <ele>205</ele>
        <time>2010-01-01T01:46:20Z</time>
      </trkpt>
      <trkpt lat="47.64983" lon="5.99591">
        <ele>206</ele>
        <time>2010-01-01T01:46:30Z</time>
      </trkpt>
      <trkpt lat="47.64988" lon="5.99585">
        <ele>206</ele>
        <time>2010-01-01T01:46:32Z</time>
      </trkpt>
      <trkpt lat="47.65007" lon="5.99565">
        <ele>205</ele>
        <time>2010-01-01T01:46:41Z</time>
      </trkpt>
      <trkpt lat="47.65009" lon="5.99563">
        <ele>204</ele>
        <time>2010-01-01T01:46:43Z</time>
      </trkpt>
      <trkpt lat="47.65017" lon="5.99553">
        <ele>204</ele>
        <time>2010-01-01T01:46:47Z</time>
      </trkpt>
      <trkpt lat="47.65022" lon="5.99567">
        <ele>204</ele>
        <time>2010-01-01T01:46:51Z</time>
      </trkpt>
      <trkpt lat="47.65027" lon="5.99581">
        <ele>204</ele>
        <time>2010-01-01T01:46:55Z</time>
      </trkpt>
      <trkpt lat="47.65032" lon="5.99595">
        <ele>204</ele>
        <time>2010-01-01T01:47:00Z</time>
      </trkpt>
      <trkpt lat="47.65038" lon="5.99612">
        <ele>205</ele>
        <time>2010-01-01T01:47:05Z</time>
      </trkpt>
      <trkpt lat="47.65042" lon="5.99628">
        <ele>205</ele>
        <time>2010-01-01T01:47:09Z</time>
      </trkpt>
      <trkpt lat="47.65045" lon="5.99649">
        <ele>205</ele>
        <time>2010-01-01T01:47:15Z</time>
      </trkpt>
      <trkpt lat="47.65048" lon="5.99671">
        <ele>205</ele>
        <time>2010-01-01T01:47:21Z</time>
      </trkpt>
      <trkpt lat="47.65053" lon="5.9969">
        <ele>205</ele>
        <time>2010-01-01T01:47:27Z</time>
      </trkpt>
      <trkpt lat="47.65058" lon="5.99717">
        <ele>205</ele>
        <time>2010-01-01T01:47:34Z</time>
      </trkpt>
      <trkpt lat="47.6506" lon="5.9973">
        <ele>205</ele>
        <time>2010-01-01T01:47:38Z</time>
      </trkpt>
      <trkpt lat="47.65063" lon="5.9974">
        <ele>205</ele>
        <time>2010-01-01T01:47:41Z</time>
      </trkpt>
      <trkpt lat="47.65068" lon="5.99747">
        <ele>205</ele>
        <time>2010-01-01T01:47:43Z</time>
      </trkpt>
      <trkpt lat="47.65075" lon="5.99754">
        <ele>205</ele>
        <time>2010-01-01T01:47:47Z</time>
      </trkpt>
      <trkpt lat="47.65082" lon="5.99758">
        <ele>205</ele>
        <time>2010-01-01T01:47:50Z</time>
      </trkpt>
      <trkpt lat="47.65089" lon="5.9976">
        <ele>205</ele>
        <time>2010-01-01T01:47:53Z</time>
      </trkpt>
      <trkpt lat="47.6511" lon="5.99764">
        <ele>205</ele>
        <time>2010-01-01T01:48:01Z</time>
      </trkpt>
      <trkpt lat="47.65125" lon="5.99767">
        <ele>204</ele>
        <time>2010-01-01T01:48:07Z</time>
      </trkpt>
      <trkpt lat="47.65136" lon="5.9977">
        <ele>204</ele>
        <time>2010-01-01T01:48:12Z</time>
      </trkpt>
      <trkpt lat="47.65157" lon="5.99772">
        <ele>203</ele>
        <time>2010-01-01T01:48:20Z</time>
      </trkpt>
      <trkpt lat="47.65173" lon="5.99772">
        <ele>203</ele>
        <time>2010-01-01T01:48:26Z</time>
      </trkpt>
      <trkpt lat="47.65186" lon="5.99773">
        <ele>203</ele>
        <time>2010-01-01T01:48:32Z</time>
      </trkpt>
      <trkpt lat="47.65209" lon="5.99774">
        <ele>203</ele>
        <time>2010-01-01T01:48:41Z</time>
      </trkpt>
      <trkpt lat="47.65219" lon="5.99775">
        <ele>203</ele>
        <time>2010-01-01T01:48:45Z</time>
      </trkpt>
      <trkpt lat="47.65225" lon="5.99776">
        <ele>203</ele>
        <time>2010-01-01T01:48:48Z</time>
      </trkpt>
      <trkpt lat="47.65234" lon="5.99779">
        <ele>204</ele>
        <time>2010-01-01T01:48:51Z</time>
      </trkpt>
      <trkpt lat="47.65249" lon="5.99787">
        <ele>204</ele>
        <time>2010-01-01T01:48:57Z</time>
      </trkpt>
      <trkpt lat="47.65264" lon="5.99796">
        <ele>204</ele>
        <time>2010-01-01T01:49:04Z</time>
      </trkpt>
      <trkpt lat="47.65282" lon="5.99804">
        <ele>205</ele>
        <time>2010-01-01T01:49:12Z</time>
      </trkpt>
      <trkpt lat="47.65302" lon="5.99814">
        <ele>205</ele>
        <time>2010-01-01T01:49:20Z</time>
      </trkpt>
      <trkpt lat="47.65304" lon="5.99815">
        <ele>205</ele>
        <time>2010-01-01T01:49:21Z</time>
      </trkpt>
      <trkpt lat="47.65321" lon="5.99825">
        <ele>206</ele>
        <time>2010-01-01T01:49:28Z</time>
      </trkpt>
      <trkpt lat="47.65337" lon="5.99831">
        <ele>207</ele>
        <time>2010-01-01T01:49:35Z</time>
      </trkpt>
      <trkpt lat="47.65345" lon="5.99811">
        <ele>208</ele>
        <time>2010-01-01T01:49:41Z</time>
      </trkpt>
      <trkpt lat="47.65363" lon="5.99783">
        <ele>209</ele>
        <time>2010-01-01T01:49:51Z</time>
      </trkpt>
      <trkpt lat="47.65365" lon="5.99772">
        <ele>209</ele>
        <time>2010-01-01T01:49:54Z</time>
      </trkpt>
      <trkpt lat="47.65369" lon="5.99753">
        <ele>209</ele>
        <time>2010-01-01T01:50:00Z</time>
      </trkpt>
      <trkpt lat="47.65371" lon="5.99748">
        <ele>209</ele>
        <time>2010-01-01T01:50:01Z</time>
      </trkpt>
      <trkpt lat="47.65391" lon="5.99703">
        <ele>209</ele>
        <time>2010-01-01T01:50:16Z</time>
      </trkpt>
      <trkpt lat="47.65401" lon="5.9968">
        <ele>208</ele>
        <time>2010-01-01T01:50:23Z</time>
      </trkpt>
      <trkpt lat="47.6541" lon="5.99657">
        <ele>207</ele>
        <time>2010-01-01T01:50:30Z</time>
      </trkpt>
      <trkpt lat="47.65434" lon="5.99602">
        <ele>207</ele>
        <time>2010-01-01T01:50:48Z</time>
      </trkpt>
      <trkpt lat="47.65446" lon="5.99572">
        <ele>207</ele>
        <time>2010-01-01T01:50:58Z</time>
      </trkpt>
      <trkpt lat="47.65455" lon="5.99552">
        <ele>206</ele>
        <time>2010-01-01T01:51:04Z</time>
      </trkpt>
      <trkpt lat="47.65463" lon="5.99532">
        <ele>207</ele>
        <time>2010-01-01T01:51:10Z</time>
      </trkpt>
      <trkpt lat="47.65471" lon="5.99506">
        <ele>207</ele>
        <time>2010-01-01T01:51:18Z</time>
      </trkpt>
      <trkpt lat="47.65478" lon="5.99486">
        <ele>208</ele>
        <time>2010-01-01T01:51:24Z</time>
      </trkpt>
      <trkpt lat="47.65487" lon="5.99455">
        <ele>209</ele>
        <time>2010-01-01T01:51:33Z</time>
      </trkpt>
      <trkpt lat="47.65496" lon="5.99423">
        <ele>209</ele>
        <time>2010-01-01T01:51:42Z</time>
      </trkpt>
      <trkpt lat="47.65503" lon="5.99398">
        <ele>209</ele>
        <time>2010-01-01T01:51:50Z</time>
      </trkpt>
      <trkpt lat="47.65512" lon="5.99374">
        <ele>209</ele>
        <time>2010-01-01T01:51:57Z</time>
      </trkpt>
      <trkpt lat="47.65533" lon="5.99301">
        <ele>211</ele>
        <time>2010-01-01T01:52:19Z</time>
      </trkpt>
      <trkpt lat="47.65571" lon="5.99173">
        <ele>209</ele>
        <time>2010-01-01T01:52:56Z</time>
      </trkpt>
      <trkpt lat="47.65574" lon="5.99159">
        <ele>209</ele>
        <time>2010-01-01T01:53:00Z</time>
      </trkpt>
      <trkpt lat="47.65579" lon="5.99138">
        <ele>210</ele>
        <time>2010-01-01T01:53:06Z</time>
      </trkpt>
      <trkpt lat="47.65583" lon="5.99127">
        <ele>211</ele>
        <time>2010-01-01T01:53:10Z</time>
      </trkpt>
      <trkpt lat="47.65587" lon="5.99105">
        <ele>212</ele>
        <time>2010-01-01T01:53:16Z</time>
      </trkpt>
      <trkpt lat="47.65592" lon="5.9907">
        <ele>212</ele>
        <time>2010-01-01T01:53:25Z</time>
      </trkpt>
      <trkpt lat="47.65599" lon="5.99041">
        <ele>213</ele>
        <time>2010-01-01T01:53:34Z</time>
      </trkpt>
      <trkpt lat="47.65605" lon="5.99008">
        <ele>213</ele>
        <time>2010-01-01T01:53:43Z</time>
      </trkpt>
      <trkpt lat="47.65611" lon="5.98978">
        <ele>213</ele>
        <time>2010-01-01T01:53:51Z</time>
      </trkpt>
      <trkpt lat="47.65618" lon="5.98949">
        <ele>215</ele>
        <time>2010-01-01T01:54:00Z</time>
      </trkpt>
      <trkpt lat="47.65625" lon="5.98916">
        <ele>215</ele>
        <time>2010-01-01T01:54:09Z</time>
      </trkpt>
      <trkpt lat="47.65631" lon="5.98887">
        <ele>216</ele>
        <time>2010-01-01T01:54:17Z</time>
      </trkpt>
      <trkpt lat="47.65642" lon="5.9883">
        <ele>215</ele>
        <time>2010-01-01T01:54:33Z</time>
      </trkpt>
      <trkpt lat="47.65648" lon="5.98797">
        <ele>214</ele>
        <time>2010-01-01T01:54:42Z</time>
      </trkpt>
      <trkpt lat="47.65655" lon="5.98765">
        <ele>213</ele>
        <time>2010-01-01T01:54:52Z</time>
      </trkpt>
      <trkpt lat="47.65658" lon="5.98746">
        <ele>213</ele>
        <time>2010-01-01T01:54:57Z</time>
      </trkpt>
      <trkpt lat="47.65663" lon="5.98727">
        <ele>213</ele>
        <time>2010-01-01T01:55:02Z</time>
      </trkpt>
      <trkpt lat="47.65671" lon="5.98704">
        <ele>214</ele>
        <time>2010-01-01T01:55:09Z</time>
      </trkpt>
      <trkpt lat="47.65678" lon="5.98683">
        <ele>214</ele>
        <time>2010-01-01T01:55:16Z</time>
      </trkpt>
      <trkpt lat="47.65685" lon="5.98664">
        <ele>214</ele>
        <time>2010-01-01T01:55:21Z</time>
      </trkpt>
      <trkpt lat="47.6569" lon="5.98647">
        <ele>214</ele>
        <time>2010-01-01T01:55:26Z</time>
      </trkpt>
      <trkpt lat="47.65696" lon="5.98628">
        <ele>214</ele>
        <time>2010-01-01T01:55:32Z</time>
      </trkpt>
      <trkpt lat="47.65705" lon="5.98606">
        <ele>215</ele>
        <time>2010-01-01T01:55:39Z</time>
      </trkpt>
      <trkpt lat="47.65711" lon="5.98588">
        <ele>215</ele>
        <time>2010-01-01T01:55:45Z</time>
      </trkpt>
      <trkpt lat="47.65715" lon="5.98581">
        <ele>216</ele>
        <time>2010-01-01T01:55:47Z</time>
      </trkpt>
      <trkpt lat="47.65723" lon="5.98554">
        <ele>215</ele>
        <time>2010-01-01T01:55:55Z</time>
      </trkpt>
      <trkpt lat="47.65735" lon="5.98523">
        <ele>213</ele>
        <time>2010-01-01T01:56:04Z</time>
      </trkpt>
      <trkpt lat="47.65754" lon="5.98466">
        <ele>211</ele>
        <time>2010-01-01T01:56:21Z</time>
      </trkpt>
      <trkpt lat="47.65769" lon="5.9843">
        <ele>211</ele>
        <time>2010-01-01T01:56:33Z</time>
      </trkpt>
      <trkpt lat="47.65781" lon="5.98398">
        <ele>210</ele>
        <time>2010-01-01T01:56:43Z</time>
      </trkpt>
      <trkpt lat="47.6579" lon="5.98376">
        <ele>209</ele>
        <time>2010-01-01T01:56:50Z</time>
      </trkpt>
      <trkpt lat="47.65791" lon="5.98374">
        <ele>209</ele>
        <time>2010-01-01T01:56:50Z</time>
      </trkpt>
      <trkpt lat="47.658" lon="5.9836">
        <ele>209</ele>
        <time>2010-01-01T01:56:56Z</time>
      </trkpt>
      <trkpt lat="47.65813" lon="5.98346">
        <ele>210</ele>
        <time>2010-01-01T01:57:02Z</time>
      </trkpt>
      <trkpt lat="47.65822" lon="5.98338">
        <ele>210</ele>
        <time>2010-01-01T01:57:06Z</time>
      </trkpt>
      <trkpt lat="47.65837" lon="5.98326">
        <ele>210</ele>
        <time>2010-01-01T01:57:13Z</time>
      </trkpt>
      <trkpt lat="47.65851" lon="5.98315">
        <ele>209</ele>
        <time>2010-01-01T01:57:19Z</time>
      </trkpt>
      <trkpt lat="47.65863" lon="5.98303">
        <ele>208</ele>
        <time>2010-01-01T01:57:25Z</time>
      </trkpt>
      <trkpt lat="47.65868" lon="5.98296">
        <ele>208</ele>
        <time>2010-01-01T01:57:28Z</time>
      </trkpt>
      <trkpt lat="47.65876" lon="5.98285">
        <ele>208</ele>
        <time>2010-01-01T01:57:32Z</time>
      </trkpt>
      <trkpt lat="47.65884" lon="5.98272">
        <ele>208</ele>
        <time>2010-01-01T01:57:37Z</time>
      </trkpt>
      <trkpt lat="47.65892" lon="5.9826">
        <ele>208</ele>
        <time>2010-01-01T01:57:41Z</time>
      </trkpt>
      <trkpt lat="47.65898" lon="5.98245">
        <ele>208</ele>
        <time>2010-01-01T01:57:46Z</time>
      </trkpt>
      <trkpt lat="47.65906" lon="5.98231">
        <ele>208</ele>
        <time>2010-01-01T01:57:51Z</time>
      </trkpt>
      <trkpt lat="47.65916" lon="5.98214">
        <ele>208</ele>
        <time>2010-01-01T01:57:57Z</time>
      </trkpt>
      <trkpt lat="47.65925" lon="5.98197">
        <ele>209</ele>
        <time>2010-01-01T01:58:03Z</time>
      </trkpt>
      <trkpt lat="47.65935" lon="5.9818">
        <ele>209</ele>
        <time>2010-01-01T01:58:09Z</time>
      </trkpt>
      <trkpt lat="47.65943" lon="5.98165">
        <ele>210</ele>
        <time>2010-01-01T01:58:14Z</time>
      </trkpt>
      <trkpt lat="47.65953" lon="5.9815">
        <ele>210</ele>
        <time>2010-01-01T01:58:20Z</time>
      </trkpt>
      <trkpt lat="47.65978" lon="5.98108">
        <ele>210</ele>
        <time>2010-01-01T01:58:35Z</time>
      </trkpt>
      <trkpt lat="47.65985" lon="5.98095">
        <ele>210</ele>
        <time>2010-01-01T01:58:40Z</time>
      </trkpt>
      <trkpt lat="47.65988" lon="5.9809">
        <ele>210</ele>
        <time>2010-01-01T01:58:42Z</time>
      </trkpt>
      <trkpt lat="47.65994" lon="5.9808">
        <ele>210</ele>
        <time>2010-01-01T01:58:45Z</time>
      </trkpt>
      <trkpt lat="47.6601" lon="5.98049">
        <ele>210</ele>
        <time>2010-01-01T01:58:56Z</time>
      </trkpt>
      <trkpt lat="47.66019" lon="5.98032">
        <ele>210</ele>
        <time>2010-01-01T01:59:02Z</time>
      </trkpt>
      <trkpt lat="47.66026" lon="5.98018">
        <ele>210</ele>
        <time>2010-01-01T01:59:06Z</time>
      </trkpt>
      <trkpt lat="47.6603" lon="5.98011">
        <ele>211</ele>
        <time>2010-01-01T01:59:09Z</time>
      </trkpt>
      <trkpt lat="47.66039" lon="5.97995">
        <ele>211</ele>
        <time>2010-01-01T01:59:14Z</time>
      </trkpt>
      <trkpt lat="47.66041" lon="5.97992">
        <ele>211</ele>
        <time>2010-01-01T01:59:15Z</time>
      </trkpt>
      <trkpt lat="47.66049" lon="5.97975">
        <ele>211</ele>
        <time>2010-01-01T01:59:21Z</time>
      </trkpt>
      <trkpt lat="47.66057" lon="5.97959">
        <ele>211</ele>
        <time>2010-01-01T01:59:26Z</time>
      </trkpt>
      <trkpt lat="47.66064" lon="5.97942">
        <ele>211</ele>
        <time>2010-01-01T01:59:32Z</time>
      </trkpt>
      <trkpt lat="47.6607" lon="5.97932">
        <ele>211</ele>
        <time>2010-01-01T01:59:35Z</time>
      </trkpt>
      <trkpt lat="47.66072" lon="5.97929">
        <ele>211</ele>
        <time>2010-01-01T01:59:36Z</time>
      </trkpt>
      <trkpt lat="47.66073" lon="5.97926">
        <ele>211</ele>
        <time>2010-01-01T01:59:37Z</time>
      </trkpt>
      <trkpt lat="47.66077" lon="5.97916">
        <ele>211</ele>
        <time>2010-01-01T01:59:41Z</time>
      </trkpt>
      <trkpt lat="47.66086" lon="5.979">
        <ele>211</ele>
        <time>2010-01-01T01:59:46Z</time>
      </trkpt>
      <trkpt lat="47.66096" lon="5.97879">
        <ele>211</ele>
        <time>2010-01-01T01:59:53Z</time>
      </trkpt>
      <trkpt lat="47.66107" lon="5.97856">
        <ele>211</ele>
        <time>2010-01-01T02:00:01Z</time>
      </trkpt>
      <trkpt lat="47.66118" lon="5.97833">
        <ele>211</ele>
        <time>2010-01-01T02:00:08Z</time>
      </trkpt>
      <trkpt lat="47.66128" lon="5.97812">
        <ele>211</ele>
        <time>2010-01-01T02:00:15Z</time>
      </trkpt>
      <trkpt lat="47.66134" lon="5.97798">
        <ele>211</ele>
        <time>2010-01-01T02:00:20Z</time>
      </trkpt>
      <trkpt lat="47.66147" lon="5.97776">
        <ele>211</ele>
        <time>2010-01-01T02:00:27Z</time>
      </trkpt>
      <trkpt lat="47.66171" lon="5.97731">
        <ele>212</ele>
        <time>2010-01-01T02:00:43Z</time>
      </trkpt>
      <trkpt lat="47.66177" lon="5.97718">
        <ele>212</ele>
        <time>2010-01-01T02:00:47Z</time>
      </trkpt>
      <trkpt lat="47.66187" lon="5.97705">
        <ele>212</ele>
        <time>2010-01-01T02:00:53Z</time>
      </trkpt>
      <trkpt lat="47.66197" lon="5.97686">
        <ele>212</ele>
        <time>2010-01-01T02:00:59Z</time>
      </trkpt>
      <trkpt lat="47.66208" lon="5.97668">
        <ele>212</ele>
        <time>2010-01-01T02:01:06Z</time>
      </trkpt>
      <trkpt lat="47.66221" lon="5.97651">
        <ele>212</ele>
        <time>2010-01-01T02:01:13Z</time>
      </trkpt>
      <trkpt lat="47.6623" lon="5.97639">
        <ele>212</ele>
        <time>2010-01-01T02:01:17Z</time>
      </trkpt>
      <trkpt lat="47.66233" lon="5.97636">
        <ele>213</ele>
        <time>2010-01-01T02:01:19Z</time>
      </trkpt>
      <trkpt lat="47.66244" lon="5.97619">
        <ele>213</ele>
        <time>2010-01-01T02:01:25Z</time>
      </trkpt>
      <trkpt lat="47.66255" lon="5.97604">
        <ele>213</ele>
        <time>2010-01-01T02:01:31Z</time>
      </trkpt>
      <trkpt lat="47.66262" lon="5.97592">
        <ele>213</ele>
        <time>2010-01-01T02:01:35Z</time>
      </trkpt>
      <trkpt lat="47.66268" lon="5.97585">
        <ele>213</ele>
        <time>2010-01-01T02:01:39Z</time>
      </trkpt>
      <trkpt lat="47.66271" lon="5.97582">
        <ele>213</ele>
        <time>2010-01-01T02:01:40Z</time>
      </trkpt>
      <trkpt lat="47.66279" lon="5.97578">
        <ele>212</ele>
        <time>2010-01-01T02:01:43Z</time>
      </trkpt>
      <trkpt lat="47.66291" lon="5.97575">
        <ele>212</ele>
        <time>2010-01-01T02:01:48Z</time>
      </trkpt>
      <trkpt lat="47.66303" lon="5.9757">
        <ele>212</ele>
        <time>2010-01-01T02:01:53Z</time>
      </trkpt>
      <trkpt lat="47.66304" lon="5.97569">
        <ele>212</ele>
        <time>2010-01-01T02:01:53Z</time>
      </trkpt>
      <trkpt lat="47.6631" lon="5.97568">
        <ele>212</ele>
        <time>2010-01-01T02:01:56Z</time>
      </trkpt>
      <trkpt lat="47.66325" lon="5.97562">
        <ele>212</ele>
        <time>2010-01-01T02:02:02Z</time>
      </trkpt>
      <trkpt lat="47.66341" lon="5.97554">
        <ele>213</ele>
        <time>2010-01-01T02:02:09Z</time>
      </trkpt>
      <trkpt lat="47.66355" lon="5.97547">
        <ele>214</ele>
        <time>2010-01-01T02:02:15Z</time>
      </trkpt>
      <trkpt lat="47.66368" lon="5.9754">
        <ele>214</ele>
        <time>2010-01-01T02:02:20Z</time>
      </trkpt>
      <trkpt lat="47.66371" lon="5.97539">
        <ele>214</ele>
        <time>2010-01-01T02:02:22Z</time>
      </trkpt>
      <trkpt lat="47.66372" lon="5.97538">
        <ele>214</ele>
        <time>2010-01-01T02:02:22Z</time>
      </trkpt>
      <trkpt lat="47.66381" lon="5.97533">
        <ele>214</ele>
        <time>2010-01-01T02:02:26Z</time>
      </trkpt>
      <trkpt lat="47.66393" lon="5.97524">
        <ele>213</ele>
        <time>2010-01-01T02:02:31Z</time>
      </trkpt>
      <trkpt lat="47.66403" lon="5.97514">
        <ele>213</ele>
        <time>2010-01-01T02:02:36Z</time>
      </trkpt>
      <trkpt lat="47.66413" lon="5.97501">
        <ele>213</ele>
        <time>2010-01-01T02:02:42Z</time>
      </trkpt>
      <trkpt lat="47.66422" lon="5.97489">
        <ele>213</ele>
        <time>2010-01-01T02:02:46Z</time>
      </trkpt>
      <trkpt lat="47.6643" lon="5.97475">
        <ele>213</ele>
        <time>2010-01-01T02:02:51Z</time>
      </trkpt>
      <trkpt lat="47.6645" lon="5.97438">
        <ele>213</ele>
        <time>2010-01-01T02:03:04Z</time>
      </trkpt>
      <trkpt lat="47.66458" lon="5.97418">
        <ele>213</ele>
        <time>2010-01-01T02:03:10Z</time>
      </trkpt>
      <trkpt lat="47.66467" lon="5.97394">
        <ele>213</ele>
        <time>2010-01-01T02:03:18Z</time>
      </trkpt>
      <trkpt lat="47.66473" lon="5.97372">
        <ele>212</ele>
        <time>2010-01-01T02:03:24Z</time>
      </trkpt>
      <trkpt lat="47.6648" lon="5.97349">
        <ele>212</ele>
        <time>2010-01-01T02:03:31Z</time>
      </trkpt>
      <trkpt lat="47.66486" lon="5.97323">
        <ele>212</ele>
        <time>2010-01-01T02:03:39Z</time>
      </trkpt>
      <trkpt lat="47.66486" lon="5.97321">
        <ele>212</ele>
        <time>2010-01-01T02:03:39Z</time>
      </trkpt>
      <trkpt lat="47.66491" lon="5.97301">
        <ele>212</ele>
        <time>2010-01-01T02:03:45Z</time>
      </trkpt>
      <trkpt lat="47.66498" lon="5.97275">
        <ele>212</ele>
        <time>2010-01-01T02:03:52Z</time>
      </trkpt>
      <trkpt lat="47.66501" lon="5.97259">
        <ele>213</ele>
        <time>2010-01-01T02:03:57Z</time>
      </trkpt>
      <trkpt lat="47.66503" lon="5.97245">
        <ele>213</ele>
        <time>2010-01-01T02:04:00Z</time>
      </trkpt>
      <trkpt lat="47.66511" lon="5.97246">
        <ele>213</ele>
        <time>2010-01-01T02:04:04Z</time>
      </trkpt>
      <trkpt lat="47.6652" lon="5.97252">
        <ele>213</ele>
        <time>2010-01-01T02:04:08Z</time>
      </trkpt>
      <trkpt lat="47.66529" lon="5.97288">
        <ele>214</ele>
        <time>2010-01-01T02:04:18Z</time>
      </trkpt>
      <trkpt lat="47.66535" lon="5.97312">
        <ele>214</ele>
        <time>2010-01-01T02:04:25Z</time>
      </trkpt>
      <trkpt lat="47.66541" lon="5.97331">
        <ele>214</ele>
        <time>2010-01-01T02:04:31Z</time>
      </trkpt>
      <trkpt lat="47.66544" lon="5.97348">
        <ele>214</ele>
        <time>2010-01-01T02:04:35Z</time>
      </trkpt>
      <trkpt lat="47.6655" lon="5.97371">
        <ele>214</ele>
        <time>2010-01-01T02:04:42Z</time>
      </trkpt>
      <trkpt lat="47.66556" lon="5.97397">
        <ele>215</ele>
        <time>2010-01-01T02:04:49Z</time>
      </trkpt>
      <trkpt lat="47.66561" lon="5.97415">
        <ele>215</ele>
        <time>2010-01-01T02:04:55Z</time>
      </trkpt>
      <trkpt lat="47.66568" lon="5.9744">
        <ele>216</ele>
        <time>2010-01-01T02:05:02Z</time>
      </trkpt>
      <trkpt lat="47.66573" lon="5.97463">
        <ele>217</ele>
        <time>2010-01-01T02:05:08Z</time>
      </trkpt>
      <trkpt lat="47.66579" lon="5.97485">
        <ele>218</ele>
        <time>2010-01-01T02:05:15Z</time>
      </trkpt>
      <trkpt lat="47.66589" lon="5.97478">
        <ele>218</ele>
        <time>2010-01-01T02:05:19Z</time>
      </trkpt>
      <trkpt lat="47.666" lon="5.97468">
        <ele>218</ele>
        <time>2010-01-01T02:05:24Z</time>
      </trkpt>
      <trkpt lat="47.66605" lon="5.97464">
        <ele>218</ele>
        <time>2010-01-01T02:05:26Z</time>
      </trkpt>
      <trkpt lat="47.66627" lon="5.97443">
        <ele>218</ele>
        <time>2010-01-01T02:05:37Z</time>
      </trkpt>
      <trkpt lat="47.66641" lon="5.97429">
        <ele>217</ele>
        <time>2010-01-01T02:05:44Z</time>
      </trkpt>
      <trkpt lat="47.66648" lon="5.97421">
        <ele>217</ele>
        <time>2010-01-01T02:05:47Z</time>
      </trkpt>
      <trkpt lat="47.66666" lon="5.97404">
        <ele>217</ele>
        <time>2010-01-01T02:05:56Z</time>
      </trkpt>
      <trkpt lat="47.66685" lon="5.97386">
        <ele>216</ele>
        <time>2010-01-01T02:06:05Z</time>
      </trkpt>
      <trkpt lat="47.66702" lon="5.9737">
        <ele>216</ele>
        <time>2010-01-01T02:06:13Z</time>
      </trkpt>
      <trkpt lat="47.66712" lon="5.97356">
        <ele>215</ele>
        <time>2010-01-01T02:06:18Z</time>
      </trkpt>
      <trkpt lat="47.66747" lon="5.97388">
        <ele>215</ele>
        <time>2010-01-01T02:06:35Z</time>
      </trkpt>
      <trkpt lat="47.66759" lon="5.974">
        <ele>215</ele>
        <time>2010-01-01T02:06:41Z</time>
      </trkpt>
    </trkseg>
  </trk>
</gpx>